Wetterdaten: Mittwoch, 29.04.2020
Datum Zeit Temp. Aussen Temp. o. S. Temp +5cm Feuchte Auss Luftdruck Regen Sonnenschein Regendauer Solar Windben Empfang
29.04.2020 00:00 12,0 C 10,6 C 10,6 C 96 % 1004,3 hPa 0,0 l/m 0 min 0 min 0 W/m 0,0 km/h (0 Bft) 95,74 %
29.04.2020 00:02 12,0 C 10,6 C 10,6 C 96 % 1004,3 hPa 0,0 l/m 0 min 0 min 0 W/m 0,0 km/h (0 Bft) 94,74 %
29.04.2020 00:04 12,0 C 11,1 C 10,6 C 96 % 1004,3 hPa 0,0 l/m 0 min 0 min 0 W/m 0,0 km/h (0 Bft) 93,62 %
29.04.2020 00:08 12,0 C 11,1 C 10,6 C 96 % 1004,3 hPa 0,0 l/m 0 min 0 min 0 W/m 3,2 km/h (1 Bft) 97,85 %
29.04.2020 00:10 12,0 C 11,1 C 10,6 C 96 % 1004,3 hPa 0,0 l/m 0 min 0 min 0 W/m 0,0 km/h (0 Bft) 93,62 %
29.04.2020 00:12 12,0 C 11,1 C 10,6 C 96 % 1004,3 hPa 0,0 l/m 0 min 0 min 0 W/m 0,0 km/h (0 Bft) 97,87 %
29.04.2020 00:14 12,0 C 11,1 C 10,6 C 96 % 1004,3 hPa 0,0 l/m 0 min 0 min 0 W/m 0,0 km/h (0 Bft) 93,62 %
29.04.2020 00:16 12,0 C 11,1 C 10,6 C 96 % 1004,3 hPa 0,0 l/m 0 min 0 min 0 W/m 0,0 km/h (0 Bft) 96,30 %
29.04.2020 00:18 12,1 C 11,1 C 10,6 C 96 % 1004,3 hPa 0,0 l/m 0 min 0 min 0 W/m 6,4 km/h (2 Bft) 97,87 %
29.04.2020 00:20 12,1 C 11,1 C 10,6 C 97 % 1004,4 hPa 0,0 l/m 0 min 0 min 0 W/m 3,2 km/h (1 Bft) 97,87 %
29.04.2020 00:22 12,1 C 11,1 C 10,6 C 97 % 1004,4 hPa 0,0 l/m 0 min 0 min 0 W/m 0,0 km/h (0 Bft) 97,87 %
29.04.2020 00:24 12,1 C 11,1 C 10,6 C 97 % 1004,4 hPa 0,0 l/m 0 min 0 min 0 W/m 0,0 km/h (0 Bft) 97,87 %
29.04.2020 00:26 12,1 C 11,1 C 10,6 C 97 % 1004,4 hPa 0,0 l/m 0 min 0 min 0 W/m 0,0 km/h (0 Bft) 95,65 %
29.04.2020 00:28 12,1 C 11,1 C 10,6 C 97 % 1004,4 hPa 0,0 l/m 0 min 0 min 0 W/m 0,0 km/h (0 Bft) 97,87 %
29.04.2020 00:30 12,1 C 11,1 C 10,6 C 96 % 1004,4 hPa 0,0 l/m 0 min 0 min 0 W/m 3,2 km/h (1 Bft) 95,74 %
29.04.2020 00:32 12,1 C 11,1 C 10,6 C 97 % 1004,4 hPa 0,0 l/m 0 min 0 min 0 W/m 0,0 km/h (0 Bft) 97,87 %
29.04.2020 00:34 12,1 C 11,1 C 10,6 C 97 % 1004,4 hPa 0,0 l/m 0 min 0 min 0 W/m 3,2 km/h (1 Bft) 97,87 %
29.04.2020 00:36 12,1 C 11,1 C 10,6 C 97 % 1004,4 hPa 0,0 l/m 0 min 0 min 0 W/m 3,2 km/h (1 Bft) 97,87 %
29.04.2020 00:38 12,1 C 11,1 C 10,6 C 97 % 1004,4 hPa 0,0 l/m 0 min 0 min 0 W/m 6,4 km/h (2 Bft) 95,65 %
29.04.2020 00:40 12,1 C 11,1 C 10,6 C 97 % 1004,4 hPa 0,0 l/m 0 min 0 min 0 W/m 0,0 km/h (0 Bft) 97,87 %
29.04.2020 00:42 12,1 C 11,1 C 10,6 C 97 % 1004,4 hPa 0,0 l/m 0 min 0 min 0 W/m 0,0 km/h (0 Bft) 97,87 %
29.04.2020 00:44 12,1 C 11,1 C 10,6 C 97 % 1004,4 hPa 0,0 l/m 0 min 0 min 0 W/m 3,2 km/h (1 Bft) 97,87 %
29.04.2020 00:46 12,1 C 11,1 C 10,6 C 97 % 1004,4 hPa 0,0 l/m 0 min 0 min 0 W/m 3,2 km/h (1 Bft) 95,74 %
29.04.2020 00:48 12,1 C 11,1 C 10,6 C 97 % 1004,4 hPa 0,0 l/m 0 min 0 min 0 W/m 3,2 km/h (1 Bft) 97,87 %
29.04.2020 00:50 12,1 C 11,1 C 10,6 C 97 % 1004,4 hPa 0,0 l/m 0 min 0 min 0 W/m 3,2 km/h (1 Bft) 97,83 %
29.04.2020 00:52 12,1 C 11,1 C 10,6 C 97 % 1004,4 hPa 0,0 l/m 0 min 0 min 0 W/m 3,2 km/h (1 Bft) 95,74 %
29.04.2020 00:54 12,1 C 11,1 C 10,6 C 97 % 1004,4 hPa 0,0 l/m 0 min 0 min 0 W/m 6,4 km/h (2 Bft) 97,87 %
29.04.2020 00:56 12,1 C 11,1 C 10,6 C 97 % 1004,5 hPa 0,0 l/m 0 min 0 min 0 W/m 0,0 km/h (0 Bft) 97,87 %
29.04.2020 00:58 12,1 C 11,1 C 10,6 C 97 % 1004,5 hPa 0,0 l/m 0 min 0 min 0 W/m 9,7 km/h (2 Bft) 97,87 %
29.04.2020 01:00 12,1 C 11,1 C 10,6 C 97 % 1004,5 hPa 0,0 l/m 0 min 0 min 0 W/m 0,0 km/h (0 Bft) 100,00 %
29.04.2020 01:02 12,1 C 11,1 C 10,6 C 97 % 1004,4 hPa 0,0 l/m 0 min 0 min 0 W/m 6,4 km/h (2 Bft) 97,87 %
29.04.2020 01:04 12,1 C 11,1 C 10,6 C 97 % 1004,4 hPa 0,0 l/m 0 min 0 min 0 W/m 6,4 km/h (2 Bft) 97,87 %
29.04.2020 01:06 12,1 C 11,1 C 10,6 C 97 % 1004,4 hPa 0,0 l/m 0 min 0 min 0 W/m 3,2 km/h (1 Bft) 97,87 %
29.04.2020 01:08 12,1 C 11,1 C 10,6 C 97 % 1004,4 hPa 0,0 l/m 0 min 0 min 0 W/m 3,2 km/h (1 Bft) 97,87 %
29.04.2020 01:10 12,1 C 11,1 C 10,6 C 97 % 1004,4 hPa 0,0 l/m 0 min 0 min 0 W/m 3,2 km/h (1 Bft) 100,00 %
29.04.2020 01:12 12,1 C 11,1 C 10,6 C 97 % 1004,5 hPa 0,0 l/m 0 min 0 min 0 W/m 0,0 km/h (0 Bft) 100,00 %
29.04.2020 01:14 12,1 C 11,1 C 10,6 C 97 % 1004,5 hPa 0,0 l/m 0 min 0 min 0 W/m 3,2 km/h (1 Bft) 100,00 %
29.04.2020 01:16 12,1 C 11,1 C 10,6 C 97 % 1004,5 hPa 0,0 l/m 0 min 0 min 0 W/m 6,4 km/h (2 Bft) 100,00 %
29.04.2020 01:18 12,1 C 11,1 C 10,6 C 97 % 1004,5 hPa 0,0 l/m 0 min 0 min 0 W/m 6,4 km/h (2 Bft) 97,87 %
29.04.2020 01:20 12,1 C 11,1 C 10,6 C 97 % 1004,5 hPa 0,0 l/m 0 min 0 min 0 W/m 0,0 km/h (0 Bft) 100,00 %
29.04.2020 01:22 12,1 C 11,1 C 10,6 C 97 % 1004,5 hPa 0,0 l/m 0 min 0 min 0 W/m 3,2 km/h (1 Bft) 97,87 %
29.04.2020 01:24 12,1 C 11,1 C 10,6 C 97 % 1004,5 hPa 0,0 l/m 0 min 0 min 0 W/m 0,0 km/h (0 Bft) 100,00 %
29.04.2020 01:26 12,1 C 11,1 C 10,6 C 97 % 1004,5 hPa 0,0 l/m 0 min 0 min 0 W/m 3,2 km/h (1 Bft) 100,00 %
29.04.2020 01:28 12,1 C 11,1 C 10,6 C 97 % 1004,5 hPa 0,0 l/m 0 min 0 min 0 W/m 3,2 km/h (1 Bft) 100,00 %
29.04.2020 01:30 12,1 C 11,1 C 10,6 C 97 % 1004,5 hPa 0,0 l/m 0 min 0 min 0 W/m 6,4 km/h (2 Bft) 100,00 %
29.04.2020 01:32 12,1 C 11,1 C 10,6 C 97 % 1004,5 hPa 0,0 l/m 0 min 0 min 0 W/m 3,2 km/h (1 Bft) 100,00 %
29.04.2020 01:34 12,1 C 11,1 C 10,6 C 97 % 1004,5 hPa 0,0 l/m 0 min 0 min 0 W/m 6,4 km/h (2 Bft) 97,87 %
29.04.2020 01:36 12,1 C 11,1 C 10,6 C 97 % 1004,5 hPa 0,0 l/m 0 min 0 min 0 W/m 3,2 km/h (1 Bft) 97,83 %
29.04.2020 01:38 12,1 C 11,1 C 10,6 C 97 % 1004,5 hPa 0,0 l/m 0 min 0 min 0 W/m 3,2 km/h (1 Bft) 100,00 %
29.04.2020 01:40 12,1 C 11,1 C 10,6 C 97 % 1004,5 hPa 0,0 l/m 0 min 0 min 0 W/m 0,0 km/h (0 Bft) 100,00 %
29.04.2020 01:42 12,1 C 11,1 C 10,6 C 97 % 1004,5 hPa 0,0 l/m 0 min 0 min 0 W/m 0,0 km/h (0 Bft) 97,87 %
29.04.2020 01:44 12,1 C 11,1 C 10,6 C 97 % 1004,5 hPa 0,0 l/m 0 min 0 min 0 W/m 0,0 km/h (0 Bft) 97,87 %
29.04.2020 01:46 12,1 C 11,1 C 10,6 C 97 % 1004,5 hPa 0,0 l/m 0 min 0 min 0 W/m 6,4 km/h (2 Bft) 100,00 %
29.04.2020 01:48 12,1 C 11,1 C 11,1 C 97 % 1004,5 hPa 0,0 l/m 0 min 0 min 0 W/m 12,9 km/h (3 Bft) 100,00 %
29.04.2020 01:50 12,1 C 11,1 C 10,6 C 97 % 1004,4 hPa 0,0 l/m 0 min 0 min 0 W/m 3,2 km/h (1 Bft) 100,00 %
29.04.2020 01:52 12,1 C 11,1 C 10,6 C 97 % 1004,5 hPa 0,0 l/m 0 min 0 min 0 W/m 3,2 km/h (1 Bft) 97,87 %
29.04.2020 01:54 12,2 C 11,1 C 10,6 C 97 % 1004,5 hPa 0,0 l/m 0 min 0 min 0 W/m 6,4 km/h (2 Bft) 100,00 %
29.04.2020 01:56 12,2 C 11,1 C 10,6 C 97 % 1004,5 hPa 0,0 l/m 0 min 0 min 0 W/m 3,2 km/h (1 Bft) 97,87 %
29.04.2020 01:58 12,2 C 11,1 C 10,6 C 97 % 1004,6 hPa 0,0 l/m 0 min 0 min 0 W/m 6,4 km/h (2 Bft) 97,83 %
29.04.2020 02:00 12,2 C 11,1 C 10,6 C 97 % 1004,5 hPa 0,0 l/m 0 min 0 min 0 W/m 12,9 km/h (3 Bft) 95,74 %
29.04.2020 02:02 12,2 C 11,1 C 10,6 C 97 % 1004,5 hPa 0,0 l/m 0 min 0 min 0 W/m 0,0 km/h (0 Bft) 95,74 %
29.04.2020 02:04 12,2 C 11,1 C 11,1 C 97 % 1004,5 hPa 0,0 l/m 0 min 0 min 0 W/m 6,4 km/h (2 Bft) 93,62 %
29.04.2020 02:06 12,2 C 11,1 C 11,1 C 97 % 1004,5 hPa 0,0 l/m 0 min 0 min 0 W/m 3,2 km/h (1 Bft) 93,62 %
29.04.2020 02:08 12,2 C 11,1 C 11,1 C 97 % 1004,5 hPa 0,0 l/m 0 min 0 min 0 W/m 3,2 km/h (1 Bft) 95,74 %
29.04.2020 02:10 12,2 C 11,1 C 11,1 C 98 % 1004,5 hPa 0,0 l/m 0 min 0 min 0 W/m 0,0 km/h (0 Bft) 95,74 %
29.04.2020 02:12 12,2 C 11,1 C 10,6 C 98 % 1004,5 hPa 0,0 l/m 0 min 0 min 0 W/m 3,2 km/h (1 Bft) 95,65 %
29.04.2020 02:14 12,2 C 11,1 C 10,6 C 98 % 1004,5 hPa 0,0 l/m 0 min 0 min 0 W/m 3,2 km/h (1 Bft) 95,74 %
29.04.2020 02:16 12,2 C 11,1 C 10,6 C 98 % 1004,5 hPa 0,0 l/m 0 min 0 min 0 W/m 6,4 km/h (2 Bft) 95,74 %
29.04.2020 02:18 12,2 C 11,1 C 10,6 C 98 % 1004,5 hPa 0,0 l/m 0 min 0 min 0 W/m 3,2 km/h (1 Bft) 95,74 %
29.04.2020 02:20 12,2 C 11,1 C 10,6 C 98 % 1004,5 hPa 0,0 l/m 0 min 0 min 0 W/m 6,4 km/h (2 Bft) 93,62 %
29.04.2020 02:22 12,2 C 11,1 C 10,6 C 98 % 1004,5 hPa 0,0 l/m 0 min 0 min 0 W/m 16,1 km/h (3 Bft) 97,83 %
29.04.2020 02:24 12,2 C 11,1 C 10,6 C 98 % 1004,5 hPa 0,0 l/m 0 min 0 min 0 W/m 6,4 km/h (2 Bft) 93,62 %
29.04.2020 02:26 12,2 C 11,1 C 10,6 C 97 % 1004,5 hPa 0,0 l/m 0 min 0 min 0 W/m 0,0 km/h (0 Bft) 93,62 %
29.04.2020 02:28 12,2 C 11,1 C 10,6 C 98 % 1004,5 hPa 0,0 l/m 0 min 0 min 0 W/m 3,2 km/h (1 Bft) 95,74 %
29.04.2020 02:30 12,2 C 11,1 C 10,6 C 98 % 1004,5 hPa 0,0 l/m 0 min 0 min 0 W/m 3,2 km/h (1 Bft) 95,74 %
29.04.2020 02:32 12,2 C 11,1 C 10,6 C 97 % 1004,5 hPa 0,0 l/m 0 min 0 min 0 W/m 0,0 km/h (0 Bft) 95,74 %
29.04.2020 02:34 12,2 C 11,1 C 10,6 C 97 % 1004,5 hPa 0,0 l/m 0 min 0 min 0 W/m 9,7 km/h (2 Bft) 95,65 %
29.04.2020 02:36 12,2 C 11,1 C 10,6 C 97 % 1004,5 hPa 0,0 l/m 0 min 0 min 0 W/m 3,2 km/h (1 Bft) 95,74 %
29.04.2020 02:38 12,2 C 11,1 C 10,6 C 97 % 1004,5 hPa 0,0 l/m 0 min 0 min 0 W/m 12,9 km/h (3 Bft) 95,74 %
29.04.2020 02:40 12,2 C 11,1 C 10,6 C 97 % 1004,5 hPa 0,0 l/m 0 min 0 min 0 W/m 0,0 km/h (0 Bft) 95,74 %
29.04.2020 02:42 12,2 C 11,1 C 10,6 C 97 % 1004,5 hPa 0,0 l/m 0 min 0 min 0 W/m 6,4 km/h (2 Bft) 95,74 %
29.04.2020 02:44 12,1 C 11,1 C 10,6 C 97 % 1004,5 hPa 0,0 l/m 0 min 0 min 0 W/m 3,2 km/h (1 Bft) 97,87 %
29.04.2020 02:46 12,1 C 11,1 C 10,6 C 97 % 1004,5 hPa 0,0 l/m 0 min 0 min 0 W/m 12,9 km/h (3 Bft) 97,83 %
29.04.2020 02:48 12,1 C 11,1 C 10,6 C 97 % 1004,6 hPa 0,0 l/m 0 min 0 min 0 W/m 6,4 km/h (2 Bft) 100,00 %
29.04.2020 02:50 12,1 C 11,1 C 10,6 C 97 % 1004,6 hPa 0,0 l/m 0 min 0 min 0 W/m 6,4 km/h (2 Bft) 100,00 %
29.04.2020 02:52 12,1 C 11,1 C 10,6 C 97 % 1004,6 hPa 0,0 l/m 0 min 0 min 0 W/m 6,4 km/h (2 Bft) 100,00 %
29.04.2020 02:54 12,1 C 11,1 C 10,6 C 97 % 1004,7 hPa 0,0 l/m 0 min 0 min 0 W/m 3,2 km/h (1 Bft) 100,00 %
29.04.2020 02:56 12,0 C 11,1 C 10,6 C 97 % 1004,6 hPa 0,0 l/m 0 min 0 min 0 W/m 6,4 km/h (2 Bft) 100,00 %
29.04.2020 02:58 12,0 C 11,1 C 10,6 C 97 % 1004,6 hPa 0,0 l/m 0 min 0 min 0 W/m 3,2 km/h (1 Bft) 100,00 %
29.04.2020 03:00 11,9 C 11,1 C 10,6 C 97 % 1004,6 hPa 0,0 l/m 0 min 0 min 0 W/m 3,2 km/h (1 Bft) 100,00 %
29.04.2020 03:02 11,9 C 11,1 C 10,6 C 97 % 1004,6 hPa 0,0 l/m 0 min 0 min 0 W/m 3,2 km/h (1 Bft) 100,00 %
29.04.2020 03:04 11,9 C 11,1 C 10,6 C 97 % 1004,6 hPa 0,0 l/m 0 min 0 min 0 W/m 3,2 km/h (1 Bft) 100,00 %
29.04.2020 03:06 11,9 C 11,1 C 10,6 C 97 % 1004,6 hPa 0,0 l/m 0 min 0 min 0 W/m 0,0 km/h (0 Bft) 100,00 %
29.04.2020 03:08 11,9 C 11,1 C 10,6 C 97 % 1004,6 hPa 0,0 l/m 0 min 0 min 0 W/m 3,2 km/h (1 Bft) 100,00 %
29.04.2020 03:10 11,9 C 11,1 C 10,6 C 97 % 1004,6 hPa 0,0 l/m 0 min 0 min 0 W/m 6,4 km/h (2 Bft) 100,00 %
29.04.2020 03:12 11,8 C 11,1 C 10,6 C 97 % 1004,6 hPa 0,0 l/m 0 min 0 min 0 W/m 6,4 km/h (2 Bft) 100,00 %
29.04.2020 03:14 11,8 C 11,1 C 10,6 C 97 % 1004,6 hPa 0,0 l/m 0 min 0 min 0 W/m 6,4 km/h (2 Bft) 100,00 %
29.04.2020 03:16 11,8 C 11,1 C 10,6 C 97 % 1004,7 hPa 0,0 l/m 0 min 0 min 0 W/m 6,4 km/h (2 Bft) 100,00 %
29.04.2020 03:18 11,8 C 11,1 C 10,6 C 97 % 1004,7 hPa 0,0 l/m 0 min 0 min 0 W/m 12,9 km/h (3 Bft) 100,00 %
29.04.2020 03:20 11,8 C 11,1 C 10,6 C 97 % 1004,7 hPa 0,0 l/m 0 min 0 min 0 W/m 3,2 km/h (1 Bft) 100,00 %
29.04.2020 03:22 11,8 C 11,1 C 10,6 C 97 % 1004,7 hPa 0,0 l/m 0 min 0 min 0 W/m 3,2 km/h (1 Bft) 100,00 %
29.04.2020 03:24 11,8 C 11,1 C 10,6 C 97 % 1004,7 hPa 0,0 l/m 0 min 0 min 0 W/m 0,0 km/h (0 Bft) 100,00 %
29.04.2020 03:26 11,8 C 11,1 C 10,6 C 97 % 1004,8 hPa 0,0 l/m 0 min 0 min 0 W/m 3,2 km/h (1 Bft) 100,00 %
29.04.2020 03:28 11,8 C 11,1 C 10,6 C 97 % 1004,7 hPa 0,0 l/m 0 min 0 min 0 W/m 6,4 km/h (2 Bft) 100,00 %
29.04.2020 03:30 11,7 C 11,1 C 10,6 C 97 % 1004,8 hPa 0,0 l/m 0 min 0 min 0 W/m 12,9 km/h (3 Bft) 100,00 %
29.04.2020 03:32 11,7 C 11,1 C 10,6 C 97 % 1004,8 hPa 0,0 l/m 0 min 0 min 0 W/m 3,2 km/h (1 Bft) 97,83 %
29.04.2020 03:34 11,7 C 11,1 C 10,6 C 97 % 1004,8 hPa 0,0 l/m 0 min 0 min 0 W/m 16,1 km/h (3 Bft) 100,00 %
29.04.2020 03:36 11,6 C 11,1 C 10,6 C 97 % 1004,8 hPa 0,0 l/m 0 min 0 min 0 W/m 3,2 km/h (1 Bft) 100,00 %
29.04.2020 03:38 11,6 C 11,1 C 10,6 C 97 % 1004,8 hPa 0,0 l/m 0 min 0 min 0 W/m 6,4 km/h (2 Bft) 100,00 %
29.04.2020 03:40 11,6 C 10,6 C 10,0 C 97 % 1004,7 hPa 0,0 l/m 0 min 0 min 0 W/m 6,4 km/h (2 Bft) 97,87 %
29.04.2020 03:42 11,6 C 11,1 C 10,0 C 97 % 1004,8 hPa 0,0 l/m 0 min 0 min 0 W/m 12,9 km/h (3 Bft) 97,87 %
29.04.2020 03:44 11,6 C 10,6 C 10,0 C 97 % 1004,8 hPa 0,0 l/m 0 min 0 min 0 W/m 6,4 km/h (2 Bft) 97,83 %
29.04.2020 03:46 11,6 C 11,1 C 10,0 C 97 % 1004,8 hPa 0,0 l/m 0 min 0 min 0 W/m 12,9 km/h (3 Bft) 97,87 %
29.04.2020 03:48 11,5 C 11,1 C 10,0 C 97 % 1004,8 hPa 0,0 l/m 0 min 0 min 0 W/m 12,9 km/h (3 Bft) 97,87 %
29.04.2020 03:50 11,5 C 10,6 C 10,0 C 97 % 1004,7 hPa 0,0 l/m 0 min 0 min 0 W/m 3,2 km/h (1 Bft) 97,87 %
29.04.2020 03:52 11,5 C 10,6 C 10,0 C 97 % 1004,8 hPa 0,0 l/m 0 min 0 min 0 W/m 0,0 km/h (0 Bft) 97,87 %
29.04.2020 03:54 11,5 C 10,6 C 10,0 C 97 % 1004,7 hPa 0,0 l/m 0 min 0 min 0 W/m 0,0 km/h (0 Bft) 95,74 %
29.04.2020 03:56 11,4 C 10,6 C 10,0 C 97 % 1004,8 hPa 0,0 l/m 0 min 0 min 0 W/m 0,0 km/h (0 Bft) 97,83 %
29.04.2020 03:58 11,5 C 10,6 C 10,0 C 97 % 1004,7 hPa 0,0 l/m 0 min 0 min 0 W/m 3,2 km/h (1 Bft) 95,74 %
29.04.2020 04:00 11,4 C 11,1 C 10,0 C 96 % 1004,7 hPa 0,0 l/m 0 min 0 min 0 W/m 9,7 km/h (2 Bft) 97,87 %
29.04.2020 04:02 11,4 C 11,1 C 10,0 C 96 % 1004,7 hPa 0,0 l/m 0 min 0 min 0 W/m 3,2 km/h (1 Bft) 100,00 %
29.04.2020 04:04 11,4 C 10,6 C 10,0 C 96 % 1004,8 hPa 0,0 l/m 0 min 0 min 0 W/m 3,2 km/h (1 Bft) 100,00 %
29.04.2020 04:06 11,4 C 11,1 C 10,0 C 96 % 1004,7 hPa 0,0 l/m 0 min 0 min 0 W/m 3,2 km/h (1 Bft) 97,83 %
29.04.2020 04:08 11,4 C 11,1 C 10,0 C 96 % 1004,8 hPa 0,0 l/m 0 min 0 min 0 W/m 3,2 km/h (1 Bft) 95,74 %
29.04.2020 04:10 11,4 C 11,1 C 10,0 C 96 % 1004,7 hPa 0,0 l/m 0 min 0 min 0 W/m 3,2 km/h (1 Bft) 97,87 %
29.04.2020 04:12 11,4 C 10,6 C 10,0 C 96 % 1004,7 hPa 0,0 l/m 0 min 0 min 0 W/m 6,4 km/h (2 Bft) 97,87 %
29.04.2020 04:14 11,4 C 10,6 C 10,0 C 96 % 1004,7 hPa 0,0 l/m 0 min 0 min 0 W/m 3,2 km/h (1 Bft) 95,74 %
29.04.2020 04:16 11,4 C 11,1 C 10,0 C 96 % 1004,7 hPa 0,0 l/m 0 min 0 min 0 W/m 3,2 km/h (1 Bft) 95,74 %
29.04.2020 04:18 11,4 C 11,1 C 10,0 C 96 % 1004,7 hPa 0,0 l/m 0 min 0 min 0 W/m 6,4 km/h (2 Bft) 95,65 %
29.04.2020 04:20 11,4 C 10,6 C 10,0 C 96 % 1004,7 hPa 0,0 l/m 0 min 0 min 0 W/m 9,7 km/h (2 Bft) 97,87 %
29.04.2020 04:22 11,4 C 10,6 C 10,0 C 96 % 1004,7 hPa 0,0 l/m 0 min 0 min 0 W/m 6,4 km/h (2 Bft) 97,87 %
29.04.2020 04:24 11,4 C 10,6 C 10,0 C 96 % 1004,7 hPa 0,0 l/m 0 min 0 min 0 W/m 0,0 km/h (0 Bft) 56,52 %
29.04.2020 04:26 11,4 C 10,6 C 10,0 C 96 % 1004,7 hPa 0,0 l/m 0 min 0 min 0 W/m 3,2 km/h (1 Bft) 97,87 %
29.04.2020 04:28 11,4 C 10,6 C 10,0 C 96 % 1004,7 hPa 0,0 l/m 0 min 0 min 0 W/m 6,4 km/h (2 Bft) 95,74 %
29.04.2020 04:30 11,3 C 10,6 C 10,0 C 96 % 1004,7 hPa 0,0 l/m 0 min 0 min 0 W/m 3,2 km/h (1 Bft) 97,83 %
29.04.2020 04:32 11,3 C 10,6 C 10,0 C 96 % 1004,7 hPa 0,0 l/m 0 min 0 min 0 W/m 6,4 km/h (2 Bft) 95,74 %
29.04.2020 04:34 11,3 C 10,6 C 10,0 C 95 % 1004,7 hPa 0,0 l/m 0 min 0 min 0 W/m 0,0 km/h (0 Bft) 95,74 %
29.04.2020 04:36 11,3 C 10,6 C 10,0 C 95 % 1004,7 hPa 0,0 l/m 0 min 0 min 0 W/m 12,9 km/h (3 Bft) 93,62 %
29.04.2020 04:38 11,3 C 10,6 C 10,0 C 95 % 1004,7 hPa 0,0 l/m 0 min 0 min 0 W/m 16,1 km/h (3 Bft) 95,74 %
29.04.2020 04:40 11,3 C 10,6 C 10,0 C 95 % 1004,7 hPa 0,0 l/m 0 min 0 min 0 W/m 3,2 km/h (1 Bft) 93,62 %
29.04.2020 04:42 11,3 C 10,6 C 10,0 C 95 % 1004,7 hPa 0,0 l/m 0 min 0 min 0 W/m 0,0 km/h (0 Bft) 95,65 %
29.04.2020 04:44 11,3 C 10,6 C 10,0 C 95 % 1004,8 hPa 0,0 l/m 0 min 0 min 0 W/m 3,2 km/h (1 Bft) 95,74 %
29.04.2020 04:46 11,3 C 10,6 C 10,0 C 95 % 1004,7 hPa 0,0 l/m 0 min 0 min 0 W/m 3,2 km/h (1 Bft) 95,74 %
29.04.2020 04:48 11,3 C 10,6 C 10,0 C 95 % 1004,7 hPa 0,0 l/m 0 min 0 min 0 W/m 9,7 km/h (2 Bft) 95,74 %
29.04.2020 04:50 11,3 C 10,6 C 10,0 C 95 % 1004,7 hPa 0,0 l/m 0 min 0 min 0 W/m 6,4 km/h (2 Bft) 97,87 %
29.04.2020 04:52 11,3 C 10,6 C 10,0 C 95 % 1004,7 hPa 0,0 l/m 0 min 0 min 0 W/m 3,2 km/h (1 Bft) 93,62 %
29.04.2020 04:54 11,3 C 10,6 C 10,0 C 95 % 1004,7 hPa 0,0 l/m 0 min 0 min 0 W/m 9,7 km/h (2 Bft) 95,65 %
29.04.2020 04:56 11,3 C 10,6 C 10,0 C 95 % 1004,7 hPa 0,0 l/m 0 min 0 min 0 W/m 9,7 km/h (2 Bft) 95,74 %
29.04.2020 04:58 11,3 C 10,6 C 10,0 C 95 % 1004,7 hPa 0,0 l/m 0 min 0 min 0 W/m 6,4 km/h (2 Bft) 95,74 %
29.04.2020 05:00 11,3 C 10,6 C 10,0 C 95 % 1004,7 hPa 0,0 l/m 0 min 0 min 0 W/m 3,2 km/h (1 Bft) 89,36 %
29.04.2020 05:02 11,2 C 10,6 C 10,0 C 95 % 1004,7 hPa 0,0 l/m 0 min 0 min 0 W/m 6,4 km/h (2 Bft) 93,62 %
29.04.2020 05:04 11,3 C 10,6 C 10,0 C 94 % 1004,7 hPa 0,0 l/m 0 min 0 min 0 W/m 3,2 km/h (1 Bft) 95,74 %
29.04.2020 05:06 11,3 C 10,6 C 10,0 C 94 % 1004,7 hPa 0,0 l/m 0 min 0 min 0 W/m 6,4 km/h (2 Bft) 95,65 %
29.04.2020 05:08 11,2 C 10,6 C 10,0 C 94 % 1004,7 hPa 0,0 l/m 0 min 0 min 0 W/m 3,2 km/h (1 Bft) 95,74 %
29.04.2020 05:10 11,2 C 10,6 C 10,0 C 94 % 1004,7 hPa 0,0 l/m 0 min 0 min 0 W/m 9,7 km/h (2 Bft) 93,62 %
29.04.2020 05:12 11,2 C 10,6 C 10,0 C 94 % 1004,7 hPa 0,0 l/m 0 min 0 min 0 W/m 3,2 km/h (1 Bft) 95,74 %
29.04.2020 05:14 11,3 C 10,6 C 10,0 C 94 % 1004,8 hPa 0,0 l/m 0 min 0 min 0 W/m 3,2 km/h (1 Bft) 97,87 %
29.04.2020 05:16 11,3 C 10,6 C 10,0 C 94 % 1004,7 hPa 0,0 l/m 0 min 0 min 0 W/m 3,2 km/h (1 Bft) 97,83 %
29.04.2020 05:18 11,3 C 10,6 C 10,0 C 94 % 1004,7 hPa 0,0 l/m 0 min 0 min 0 W/m 3,2 km/h (1 Bft) 95,74 %
29.04.2020 05:20 11,3 C 10,6 C 10,0 C 94 % 1004,7 hPa 0,0 l/m 0 min 0 min 0 W/m 3,2 km/h (1 Bft) 97,87 %
29.04.2020 05:22 11,3 C 10,6 C 10,0 C 94 % 1004,7 hPa 0,0 l/m 0 min 0 min 0 W/m 3,2 km/h (1 Bft) 97,87 %
29.04.2020 05:24 11,3 C 10,6 C 10,0 C 94 % 1004,6 hPa 0,0 l/m 0 min 0 min 0 W/m 6,4 km/h (2 Bft) 100,00 %
29.04.2020 05:26 11,3 C 10,6 C 10,0 C 94 % 1004,6 hPa 0,0 l/m 0 min 0 min 0 W/m 3,2 km/h (1 Bft) 97,87 %
29.04.2020 05:28 11,3 C 10,6 C 10,0 C 94 % 1004,6 hPa 0,0 l/m 0 min 0 min 0 W/m 3,2 km/h (1 Bft) 97,83 %
29.04.2020 05:30 11,3 C 10,6 C 10,0 C 94 % 1004,6 hPa 0,0 l/m 0 min 0 min 0 W/m 0,0 km/h (0 Bft) 95,74 %
29.04.2020 05:32 11,3 C 10,6 C 10,0 C 94 % 1004,6 hPa 0,0 l/m 0 min 0 min 0 W/m 0,0 km/h (0 Bft) 97,87 %
29.04.2020 05:34 11,3 C 10,6 C 10,0 C 94 % 1004,7 hPa 0,0 l/m 0 min 0 min 0 W/m 0,0 km/h (0 Bft) 95,74 %
29.04.2020 05:36 11,3 C 10,6 C 10,0 C 94 % 1004,6 hPa 0,0 l/m 0 min 0 min 0 W/m 3,2 km/h (1 Bft) 97,87 %
29.04.2020 05:38 11,3 C 10,6 C 10,0 C 94 % 1004,6 hPa 0,0 l/m 0 min 0 min 0 W/m 0,0 km/h (0 Bft) 100,00 %
29.04.2020 05:40 11,3 C 10,6 C 10,0 C 94 % 1004,6 hPa 0,0 l/m 0 min 0 min 0 W/m 3,2 km/h (1 Bft) 100,00 %
29.04.2020 05:42 11,3 C 10,6 C 10,0 C 94 % 1004,5 hPa 0,0 l/m 0 min 0 min 0 W/m 12,9 km/h (3 Bft) 100,00 %
29.04.2020 05:44 11,3 C 10,6 C 10,0 C 94 % 1004,6 hPa 0,0 l/m 0 min 0 min 0 W/m 6,4 km/h (2 Bft) 100,00 %
29.04.2020 05:46 11,3 C 10,6 C 10,0 C 94 % 1004,5 hPa 0,0 l/m 0 min 0 min 0 W/m 3,2 km/h (1 Bft) 97,87 %
29.04.2020 05:48 11,3 C 10,6 C 10,0 C 94 % 1004,5 hPa 0,0 l/m 0 min 0 min 0 W/m 3,2 km/h (1 Bft) 100,00 %
29.04.2020 05:50 11,3 C 10,6 C 10,0 C 94 % 1004,5 hPa 0,0 l/m 0 min 0 min 0 W/m 3,2 km/h (1 Bft) 100,00 %
29.04.2020 05:52 11,3 C 10,6 C 10,0 C 94 % 1004,5 hPa 0,0 l/m 0 min 0 min 0 W/m 3,2 km/h (1 Bft) 100,00 %
29.04.2020 05:54 11,3 C 10,6 C 10,0 C 94 % 1004,5 hPa 0,0 l/m 0 min 0 min 0 W/m 6,4 km/h (2 Bft) 97,87 %
29.04.2020 05:56 11,3 C 10,6 C 10,0 C 94 % 1004,5 hPa 0,0 l/m 0 min 0 min 0 W/m 6,4 km/h (2 Bft) 100,00 %
29.04.2020 05:58 11,3 C 10,6 C 10,0 C 94 % 1004,5 hPa 0,0 l/m 0 min 0 min 0 W/m 12,9 km/h (3 Bft) 100,00 %
29.04.2020 06:00 11,3 C 10,6 C 10,0 C 94 % 1004,6 hPa 0,0 l/m 0 min 0 min 0 W/m 6,4 km/h (2 Bft) 100,00 %
29.04.2020 06:02 11,3 C 10,6 C 10,0 C 95 % 1004,6 hPa 0,0 l/m 0 min 0 min 0 W/m 3,2 km/h (1 Bft) 97,87 %
29.04.2020 06:04 11,3 C 10,6 C 10,0 C 95 % 1004,7 hPa 0,0 l/m 0 min 0 min 0 W/m 6,4 km/h (2 Bft) 100,00 %
29.04.2020 06:08 11,4 C 10,6 C 10,0 C 95 % 1004,7 hPa 0,0 l/m 0 min 0 min 0 W/m 16,1 km/h (3 Bft) 100,00 %
29.04.2020 06:10 11,4 C 10,6 C 10,6 C 95 % 1004,7 hPa 0,0 l/m 0 min 0 min 0 W/m 3,2 km/h (1 Bft) 100,00 %
29.04.2020 06:12 11,4 C 10,6 C 10,6 C 95 % 1004,7 hPa 0,0 l/m 0 min 0 min 0 W/m 3,2 km/h (1 Bft) 100,00 %
29.04.2020 06:14 11,4 C 10,6 C 10,0 C 95 % 1004,8 hPa 0,0 l/m 0 min 0 min 0 W/m 9,7 km/h (2 Bft) 100,00 %
29.04.2020 06:16 11,4 C 10,6 C 10,6 C 95 % 1004,8 hPa 0,0 l/m 0 min 0 min 0 W/m 12,9 km/h (3 Bft) 100,00 %
29.04.2020 06:18 11,4 C 10,6 C 10,0 C 95 % 1004,8 hPa 0,0 l/m 0 min 0 min 0 W/m 3,2 km/h (1 Bft) 97,87 %
29.04.2020 06:20 11,4 C 10,6 C 10,6 C 95 % 1004,7 hPa 0,0 l/m 0 min 0 min 0 W/m 6,4 km/h (2 Bft) 100,00 %
29.04.2020 06:22 11,4 C 10,6 C 10,6 C 95 % 1004,8 hPa 0,0 l/m 0 min 0 min 0 W/m 12,9 km/h (3 Bft) 100,00 %
29.04.2020 06:24 11,4 C 10,6 C 10,0 C 95 % 1004,8 hPa 0,0 l/m 0 min 0 min 0 W/m 16,1 km/h (3 Bft) 97,87 %
29.04.2020 06:26 11,4 C 10,6 C 10,0 C 95 % 1004,8 hPa 0,0 l/m 0 min 0 min 0 W/m 16,1 km/h (3 Bft) 100,00 %
29.04.2020 06:28 11,4 C 10,6 C 10,0 C 95 % 1004,8 hPa 0,0 l/m 0 min 0 min 0 W/m 12,9 km/h (3 Bft) 100,00 %
29.04.2020 06:30 11,4 C 10,6 C 10,0 C 95 % 1004,7 hPa 0,0 l/m 0 min 0 min 0 W/m 3,2 km/h (1 Bft) 100,00 %
29.04.2020 06:32 11,4 C 10,6 C 10,0 C 95 % 1004,7 hPa 0,0 l/m 0 min 0 min 0 W/m 6,4 km/h (2 Bft) 100,00 %
29.04.2020 06:34 11,4 C 10,6 C 10,0 C 95 % 1004,8 hPa 0,0 l/m 0 min 0 min 0 W/m 6,4 km/h (2 Bft) 100,00 %
29.04.2020 06:36 11,4 C 10,6 C 10,0 C 95 % 1004,8 hPa 0,0 l/m 0 min 0 min 0 W/m 9,7 km/h (2 Bft) 100,00 %
29.04.2020 06:38 11,4 C 10,6 C 10,0 C 95 % 1004,8 hPa 0,0 l/m 0 min 0 min 4 W/m 16,1 km/h (3 Bft) 97,83 %
29.04.2020 06:40 11,4 C 10,6 C 10,6 C 95 % 1004,8 hPa 0,0 l/m 0 min 0 min 7 W/m 3,2 km/h (1 Bft) 100,00 %
29.04.2020 06:42 11,4 C 10,6 C 10,6 C 95 % 1005,0 hPa 0,0 l/m 0 min 0 min 9 W/m 6,4 km/h (2 Bft) 97,87 %
29.04.2020 06:44 11,4 C 10,6 C 10,6 C 95 % 1004,9 hPa 0,0 l/m 0 min 0 min 11 W/m 6,4 km/h (2 Bft) 100,00 %
29.04.2020 06:46 11,4 C 10,6 C 10,6 C 95 % 1004,9 hPa 0,0 l/m 0 min 0 min 12 W/m 3,2 km/h (1 Bft) 97,87 %
29.04.2020 06:48 11,4 C 10,6 C 10,0 C 95 % 1004,9 hPa 0,0 l/m 0 min 0 min 16 W/m 0,0 km/h (0 Bft) 97,87 %
29.04.2020 06:50 11,4 C 10,6 C 10,6 C 95 % 1004,9 hPa 0,0 l/m 0 min 0 min 19 W/m 3,2 km/h (1 Bft) 100,00 %
29.04.2020 06:52 11,4 C 11,1 C 10,6 C 95 % 1004,9 hPa 0,0 l/m 0 min 0 min 25 W/m 3,2 km/h (1 Bft) 100,00 %
29.04.2020 06:54 11,4 C 11,1 C 10,6 C 95 % 1004,9 hPa 0,0 l/m 0 min 0 min 30 W/m 0,0 km/h (0 Bft) 100,00 %
29.04.2020 06:56 11,4 C 11,1 C 10,6 C 94 % 1004,9 hPa 0,0 l/m 0 min 0 min 31 W/m 6,4 km/h (2 Bft) 95,74 %
29.04.2020 06:58 11,4 C 11,1 C 10,6 C 94 % 1004,8 hPa 0,0 l/m 0 min 0 min 30 W/m 12,9 km/h (3 Bft) 100,00 %
29.04.2020 07:00 11,4 C 11,1 C 10,6 C 94 % 1004,9 hPa 0,0 l/m 0 min 0 min 30 W/m 12,9 km/h (3 Bft) 100,00 %
29.04.2020 07:02 11,4 C 11,1 C 10,6 C 94 % 1004,9 hPa 0,0 l/m 0 min 0 min 29 W/m 16,1 km/h (3 Bft) 100,00 %
29.04.2020 07:04 11,4 C 11,1 C 10,6 C 94 % 1004,9 hPa 0,0 l/m 0 min 0 min 20 W/m 25,7 km/h (4 Bft) 97,87 %
29.04.2020 07:06 11,4 C 11,1 C 10,6 C 94 % 1004,9 hPa 0,0 l/m 0 min 0 min 18 W/m 16,1 km/h (3 Bft) 97,87 %
29.04.2020 07:08 11,4 C 11,1 C 10,6 C 94 % 1004,9 hPa 0,0 l/m 0 min 0 min 18 W/m 16,1 km/h (3 Bft) 95,74 %
29.04.2020 07:10 11,4 C 11,1 C 10,6 C 94 % 1004,8 hPa 0,0 l/m 0 min 0 min 20 W/m 16,1 km/h (3 Bft) 97,87 %
29.04.2020 07:12 11,4 C 11,1 C 10,6 C 94 % 1004,9 hPa 0,0 l/m 0 min 0 min 26 W/m 3,2 km/h (1 Bft) 95,65 %
29.04.2020 07:14 11,4 C 11,1 C 10,6 C 94 % 1004,9 hPa 0,0 l/m 0 min 0 min 37 W/m 6,4 km/h (2 Bft) 97,87 %
29.04.2020 07:16 11,4 C 11,1 C 10,6 C 94 % 1005,0 hPa 0,0 l/m 0 min 0 min 42 W/m 12,9 km/h (3 Bft) 97,87 %
29.04.2020 07:18 11,4 C 11,1 C 10,6 C 94 % 1005,0 hPa 0,0 l/m 0 min 0 min 45 W/m 3,2 km/h (1 Bft) 97,87 %
29.04.2020 07:20 11,4 C 11,1 C 10,6 C 94 % 1005,0 hPa 0,0 l/m 0 min 0 min 40 W/m 3,2 km/h (1 Bft) 97,87 %
29.04.2020 07:24 11,5 C 11,1 C 10,6 C 94 % 1005,0 hPa 0,0 l/m 0 min 0 min 37 W/m 12,9 km/h (3 Bft) 97,62 %
29.04.2020 07:26 11,5 C 11,1 C 10,6 C 94 % 1005,0 hPa 0,0 l/m 0 min 0 min 35 W/m 16,1 km/h (3 Bft) 97,96 %
29.04.2020 07:28 11,5 C 11,1 C 10,6 C 94 % 1005,0 hPa 0,0 l/m 0 min 0 min 35 W/m 12,9 km/h (3 Bft) 95,65 %
29.04.2020 07:30 11,6 C 11,1 C 10,6 C 94 % 1005,0 hPa 0,0 l/m 0 min 0 min 35 W/m 12,9 km/h (3 Bft) 93,62 %
29.04.2020 07:32 11,6 C 11,1 C 10,6 C 94 % 1005,0 hPa 0,0 l/m 0 min 0 min 38 W/m 3,2 km/h (1 Bft) 93,62 %
29.04.2020 07:34 11,6 C 11,1 C 10,6 C 94 % 1005,0 hPa 0,0 l/m 0 min 0 min 41 W/m 16,1 km/h (3 Bft) 95,74 %
29.04.2020 07:36 11,6 C 11,1 C 10,6 C 94 % 1005,0 hPa 0,0 l/m 0 min 0 min 49 W/m 3,2 km/h (1 Bft) 95,74 %
29.04.2020 07:38 11,6 C 11,1 C 10,6 C 94 % 1005,1 hPa 0,0 l/m 0 min 0 min 55 W/m 6,4 km/h (2 Bft) 95,74 %
29.04.2020 07:40 11,6 C 11,7 C 10,6 C 94 % 1005,0 hPa 0,0 l/m 0 min 0 min 62 W/m 6,4 km/h (2 Bft) 92,59 %
29.04.2020 07:42 11,6 C 11,7 C 11,1 C 94 % 1005,1 hPa 0,0 l/m 0 min 0 min 65 W/m 6,4 km/h (2 Bft) 92,11 %
29.04.2020 07:44 11,6 C 11,7 C 11,1 C 94 % 1005,1 hPa 0,0 l/m 0 min 0 min 69 W/m 9,7 km/h (2 Bft) 93,62 %
29.04.2020 07:46 11,7 C 11,7 C 11,1 C 94 % 1005,1 hPa 0,0 l/m 0 min 0 min 71 W/m 6,4 km/h (2 Bft) 93,75 %
29.04.2020 07:48 11,7 C 11,7 C 11,1 C 94 % 1005,2 hPa 0,0 l/m 0 min 0 min 74 W/m 12,9 km/h (3 Bft) 95,74 %
29.04.2020 07:50 11,7 C 11,7 C 11,1 C 94 % 1005,1 hPa 0,0 l/m 0 min 0 min 80 W/m 19,3 km/h (3 Bft) 91,49 %
29.04.2020 07:52 11,7 C 11,7 C 11,1 C 94 % 1005,1 hPa 0,0 l/m 0 min 0 min 82 W/m 16,1 km/h (3 Bft) 94,44 %
29.04.2020 07:54 11,8 C 11,7 C 11,1 C 94 % 1005,1 hPa 0,0 l/m 0 min 0 min 77 W/m 3,2 km/h (1 Bft) 93,62 %
29.04.2020 07:56 11,8 C 11,7 C 11,1 C 94 % 1005,1 hPa 0,0 l/m 0 min 0 min 67 W/m 6,4 km/h (2 Bft) 92,11 %
29.04.2020 07:58 11,8 C 11,7 C 11,1 C 94 % 1005,1 hPa 0,0 l/m 0 min 0 min 66 W/m 16,1 km/h (3 Bft) 93,62 %
29.04.2020 08:00 11,9 C 11,7 C 11,1 C 94 % 1005,1 hPa 0,0 l/m 0 min 0 min 72 W/m 16,1 km/h (3 Bft) 95,74 %
29.04.2020 08:02 11,9 C 11,7 C 11,1 C 94 % 1005,1 hPa 0,0 l/m 0 min 0 min 75 W/m 12,9 km/h (3 Bft) 93,62 %
29.04.2020 08:04 11,9 C 11,7 C 11,1 C 94 % 1005,2 hPa 0,0 l/m 0 min 0 min 82 W/m 12,9 km/h (3 Bft) 95,65 %
29.04.2020 08:06 11,9 C 11,7 C 11,1 C 94 % 1005,2 hPa 0,0 l/m 0 min 0 min 79 W/m 22,5 km/h (4 Bft) 95,74 %
29.04.2020 08:08 11,9 C 11,7 C 11,1 C 94 % 1005,2 hPa 0,0 l/m 0 min 0 min 69 W/m 6,4 km/h (2 Bft) 95,83 %
29.04.2020 08:10 12,0 C 11,7 C 11,1 C 94 % 1005,2 hPa 0,0 l/m 0 min 0 min 66 W/m 19,3 km/h (3 Bft) 95,74 %
29.04.2020 08:12 12,0 C 11,7 C 11,1 C 94 % 1005,2 hPa 0,0 l/m 0 min 0 min 65 W/m 12,9 km/h (3 Bft) 95,74 %
29.04.2020 08:14 12,0 C 11,7 C 11,1 C 94 % 1005,1 hPa 0,0 l/m 0 min 0 min 72 W/m 6,4 km/h (2 Bft) 93,48 %
29.04.2020 08:16 12,1 C 11,7 C 11,1 C 94 % 1005,1 hPa 0,0 l/m 0 min 0 min 62 W/m 12,9 km/h (3 Bft) 95,74 %
29.04.2020 08:18 12,1 C 11,7 C 11,1 C 94 % 1005,1 hPa 0,0 l/m 0 min 0 min 64 W/m 12,9 km/h (3 Bft) 95,74 %
29.04.2020 08:20 12,1 C 11,7 C 11,1 C 95 % 1005,1 hPa 0,0 l/m 0 min 0 min 90 W/m 3,2 km/h (1 Bft) 95,74 %
29.04.2020 08:22 12,1 C 12,2 C 11,7 C 95 % 1005,1 hPa 0,0 l/m 0 min 0 min 88 W/m 12,9 km/h (3 Bft) 97,87 %
29.04.2020 08:24 12,1 C 12,2 C 11,7 C 95 % 1005,1 hPa 0,0 l/m 0 min 0 min 87 W/m 12,9 km/h (3 Bft) 97,87 %
29.04.2020 08:26 12,1 C 12,2 C 11,7 C 95 % 1005,1 hPa 0,0 l/m 0 min 0 min 92 W/m 6,4 km/h (2 Bft) 97,83 %
29.04.2020 08:28 12,2 C 12,2 C 11,7 C 95 % 1005,1 hPa 0,0 l/m 0 min 0 min 95 W/m 16,1 km/h (3 Bft) 100,00 %
29.04.2020 08:30 12,2 C 12,2 C 11,7 C 95 % 1005,1 hPa 0,0 l/m 0 min 0 min 88 W/m 16,1 km/h (3 Bft) 100,00 %
29.04.2020 08:32 12,2 C 12,2 C 11,7 C 95 % 1005,1 hPa 0,0 l/m 0 min 0 min 77 W/m 16,1 km/h (3 Bft) 100,00 %
29.04.2020 08:34 12,2 C 12,2 C 11,7 C 95 % 1005,1 hPa 0,0 l/m 0 min 0 min 74 W/m 6,4 km/h (2 Bft) 97,87 %
29.04.2020 08:36 12,2 C 12,2 C 11,7 C 95 % 1005,1 hPa 0,0 l/m 0 min 0 min 74 W/m 6,4 km/h (2 Bft) 100,00 %
29.04.2020 08:38 12,2 C 12,2 C 11,7 C 95 % 1005,1 hPa 0,0 l/m 0 min 0 min 72 W/m 12,9 km/h (3 Bft) 95,74 %
29.04.2020 08:40 12,2 C 12,2 C 11,7 C 95 % 1005,1 hPa 0,0 l/m 0 min 0 min 84 W/m 19,3 km/h (3 Bft) 100,00 %
29.04.2020 08:42 12,2 C 12,2 C 11,7 C 94 % 1005,1 hPa 0,0 l/m 0 min 0 min 90 W/m 19,3 km/h (3 Bft) 100,00 %
29.04.2020 08:44 12,2 C 12,2 C 11,7 C 94 % 1005,1 hPa 0,0 l/m 0 min 0 min 98 W/m 9,7 km/h (2 Bft) 100,00 %
29.04.2020 08:46 12,2 C 12,2 C 11,7 C 94 % 1005,1 hPa 0,0 l/m 0 min 0 min 92 W/m 6,4 km/h (2 Bft) 100,00 %
29.04.2020 08:48 12,3 C 12,2 C 11,7 C 94 % 1005,1 hPa 0,0 l/m 0 min 0 min 101 W/m 6,4 km/h (2 Bft) 100,00 %
29.04.2020 08:50 12,3 C 12,2 C 11,7 C 94 % 1005,1 hPa 0,0 l/m 0 min 0 min 83 W/m 16,1 km/h (3 Bft) 100,00 %
29.04.2020 08:52 12,3 C 12,2 C 11,7 C 94 % 1005,1 hPa 0,0 l/m 0 min 0 min 47 W/m 6,4 km/h (2 Bft) 100,00 %
29.04.2020 08:54 12,3 C 12,2 C 11,7 C 94 % 1005,1 hPa 0,0 l/m 0 min 0 min 27 W/m 19,3 km/h (3 Bft) 100,00 %
29.04.2020 08:56 12,3 C 11,7 C 11,7 C 94 % 1005,1 hPa 0,0 l/m 0 min 2 min 23 W/m 12,9 km/h (3 Bft) 100,00 %
29.04.2020 08:58 12,3 C 11,7 C 11,1 C 94 % 1005,1 hPa 0,0 l/m 0 min 2 min 24 W/m 22,5 km/h (4 Bft) 100,00 %
29.04.2020 09:00 12,3 C 11,7 C 11,1 C 94 % 1005,1 hPa 0,0 l/m 0 min 0 min 23 W/m 3,2 km/h (1 Bft) 53,49 %
29.04.2020 09:02 12,3 C 11,1 C 11,1 C 94 % 1005,2 hPa 0,0 l/m 0 min 2 min 19 W/m 6,4 km/h (2 Bft) 97,87 %
29.04.2020 09:04 12,3 C 11,1 C 10,6 C 94 % 1005,2 hPa 0,0 l/m 0 min 2 min 18 W/m 19,3 km/h (3 Bft) 100,00 %
29.04.2020 09:06 12,3 C 11,1 C 10,6 C 94 % 1005,3 hPa 0,0 l/m 0 min 2 min 14 W/m 6,4 km/h (2 Bft) 100,00 %
29.04.2020 09:08 12,4 C 11,1 C 10,6 C 94 % 1005,3 hPa 0,0 l/m 0 min 2 min 16 W/m 9,7 km/h (2 Bft) 100,00 %
29.04.2020 09:10 12,3 C 10,6 C 10,6 C 94 % 1005,2 hPa 0,0 l/m 0 min 2 min 17 W/m 6,4 km/h (2 Bft) 100,00 %
29.04.2020 09:12 12,3 C 10,6 C 10,0 C 94 % 1005,2 hPa 0,0 l/m 0 min 2 min 13 W/m 6,4 km/h (2 Bft) 100,00 %
29.04.2020 09:14 12,3 C 10,0 C 10,0 C 94 % 1005,2 hPa 0,2 l/m 0 min 2 min 11 W/m 3,2 km/h (1 Bft) 97,87 %
29.04.2020 09:16 12,2 C 10,0 C 10,0 C 94 % 1005,2 hPa 0,0 l/m 0 min 2 min 12 W/m 6,4 km/h (2 Bft) 100,00 %
29.04.2020 09:18 12,2 C 10,0 C 10,0 C 94 % 1005,4 hPa 0,2 l/m 0 min 2 min 16 W/m 3,2 km/h (1 Bft) 100,00 %
29.04.2020 09:20 12,1 C 10,0 C 10,0 C 94 % 1005,3 hPa 0,0 l/m 0 min 2 min 31 W/m 0,0 km/h (0 Bft) 100,00 %
29.04.2020 09:22 12,1 C 10,0 C 10,0 C 94 % 1005,3 hPa 0,2 l/m 0 min 2 min 45 W/m 16,1 km/h (3 Bft) 100,00 %
29.04.2020 09:24 12,1 C 10,0 C 10,0 C 94 % 1005,4 hPa 0,0 l/m 0 min 0 min 69 W/m 6,4 km/h (2 Bft) 100,00 %
29.04.2020 09:26 12,0 C 10,6 C 10,0 C 94 % 1005,3 hPa 0,0 l/m 0 min 0 min 88 W/m 3,2 km/h (1 Bft) 97,87 %
29.04.2020 09:28 11,9 C 10,6 C 10,0 C 94 % 1005,4 hPa 0,0 l/m 0 min 0 min 85 W/m 3,2 km/h (1 Bft) 100,00 %
29.04.2020 09:30 11,9 C 10,6 C 10,0 C 94 % 1005,4 hPa 0,0 l/m 0 min 0 min 76 W/m 3,2 km/h (1 Bft) 100,00 %
29.04.2020 09:32 11,9 C 10,6 C 10,0 C 94 % 1005,4 hPa 0,0 l/m 0 min 0 min 81 W/m 6,4 km/h (2 Bft) 100,00 %
29.04.2020 09:34 11,9 C 10,6 C 10,0 C 94 % 1005,4 hPa 0,0 l/m 0 min 2 min 84 W/m 3,2 km/h (1 Bft) 100,00 %
29.04.2020 09:36 11,9 C 10,6 C 10,0 C 94 % 1005,4 hPa 0,0 l/m 0 min 0 min 97 W/m 3,2 km/h (1 Bft) 100,00 %
29.04.2020 09:38 11,9 C 10,6 C 10,6 C 94 % 1005,4 hPa 0,0 l/m 0 min 0 min 105 W/m 0,0 km/h (0 Bft) 100,00 %
29.04.2020 09:40 11,9 C 11,1 C 10,6 C 95 % 1005,4 hPa 0,0 l/m 0 min 0 min 115 W/m 0,0 km/h (0 Bft) 97,87 %
29.04.2020 09:42 11,9 C 11,1 C 10,6 C 95 % 1005,4 hPa 0,0 l/m 0 min 0 min 117 W/m 0,0 km/h (0 Bft) 95,74 %
29.04.2020 09:44 11,9 C 11,1 C 10,6 C 95 % 1005,4 hPa 0,0 l/m 0 min 0 min 121 W/m 0,0 km/h (0 Bft) 100,00 %
29.04.2020 09:46 11,9 C 11,1 C 10,6 C 95 % 1005,4 hPa 0,0 l/m 0 min 0 min 116 W/m 3,2 km/h (1 Bft) 100,00 %
29.04.2020 09:48 11,9 C 11,1 C 10,6 C 95 % 1005,4 hPa 0,0 l/m 0 min 0 min 112 W/m 0,0 km/h (0 Bft) 100,00 %
29.04.2020 09:50 12,0 C 11,7 C 11,1 C 95 % 1005,4 hPa 0,0 l/m 0 min 0 min 122 W/m 0,0 km/h (0 Bft) 97,83 %
29.04.2020 09:52 12,0 C 11,7 C 11,1 C 95 % 1005,4 hPa 0,0 l/m 0 min 0 min 143 W/m 0,0 km/h (0 Bft) 100,00 %
29.04.2020 09:54 12,1 C 11,7 C 11,1 C 95 % 1005,4 hPa 0,0 l/m 0 min 0 min 147 W/m 0,0 km/h (0 Bft) 100,00 %
29.04.2020 09:56 12,1 C 11,7 C 11,1 C 96 % 1005,4 hPa 0,0 l/m 0 min 0 min 128 W/m 0,0 km/h (0 Bft) 100,00 %
29.04.2020 09:58 12,1 C 11,7 C 11,1 C 96 % 1005,4 hPa 0,0 l/m 0 min 0 min 153 W/m 0,0 km/h (0 Bft) 97,87 %
29.04.2020 10:00 12,1 C 11,7 C 11,1 C 96 % 1005,4 hPa 0,0 l/m 0 min 0 min 139 W/m 0,0 km/h (0 Bft) 97,87 %
29.04.2020 10:02 12,1 C 12,2 C 11,7 C 96 % 1005,4 hPa 0,0 l/m 0 min 0 min 146 W/m 3,2 km/h (1 Bft) 97,87 %
29.04.2020 10:04 12,2 C 12,2 C 11,7 C 96 % 1005,4 hPa 0,0 l/m 0 min 0 min 167 W/m 3,2 km/h (1 Bft) 97,87 %
29.04.2020 10:06 12,2 C 11,7 C 11,7 C 96 % 1005,3 hPa 0,0 l/m 0 min 0 min 113 W/m 3,2 km/h (1 Bft) 95,74 %
29.04.2020 10:08 12,2 C 11,7 C 11,1 C 96 % 1005,4 hPa 0,0 l/m 0 min 0 min 91 W/m 3,2 km/h (1 Bft) 98,18 %
29.04.2020 10:10 12,2 C 11,7 C 11,7 C 96 % 1005,4 hPa 0,0 l/m 0 min 0 min 101 W/m 3,2 km/h (1 Bft) 94,74 %
29.04.2020 10:12 12,3 C 12,2 C 11,7 C 96 % 1005,3 hPa 0,0 l/m 0 min 0 min 143 W/m 0,0 km/h (0 Bft) 100,00 %
29.04.2020 10:14 12,3 C 12,2 C 11,7 C 96 % 1005,4 hPa 0,0 l/m 0 min 0 min 136 W/m 0,0 km/h (0 Bft) 97,87 %
29.04.2020 10:16 12,3 C 12,2 C 11,7 C 96 % 1005,4 hPa 0,0 l/m 0 min 0 min 122 W/m 0,0 km/h (0 Bft) 95,83 %
29.04.2020 10:18 12,4 C 12,2 C 11,7 C 96 % 1005,4 hPa 0,0 l/m 0 min 0 min 96 W/m 6,4 km/h (2 Bft) 93,62 %
29.04.2020 10:20 12,3 C 11,7 C 11,1 C 96 % 1005,4 hPa 0,0 l/m 0 min 0 min 89 W/m 19,3 km/h (3 Bft) 95,74 %
29.04.2020 10:22 12,3 C 11,7 C 11,7 C 96 % 1005,4 hPa 0,0 l/m 0 min 0 min 103 W/m 3,2 km/h (1 Bft) 95,74 %
29.04.2020 10:24 12,4 C 12,2 C 11,7 C 96 % 1005,4 hPa 0,0 l/m 0 min 0 min 132 W/m 6,4 km/h (2 Bft) 95,65 %
29.04.2020 10:26 12,4 C 12,2 C 11,7 C 96 % 1005,4 hPa 0,0 l/m 0 min 0 min 108 W/m 0,0 km/h (0 Bft) 95,74 %
29.04.2020 10:28 12,4 C 12,2 C 11,7 C 96 % 1005,4 hPa 0,0 l/m 0 min 0 min 108 W/m 3,2 km/h (1 Bft) 95,74 %
29.04.2020 10:30 12,4 C 11,7 C 11,7 C 96 % 1005,5 hPa 0,0 l/m 0 min 0 min 107 W/m 0,0 km/h (0 Bft) 93,62 %
29.04.2020 10:32 12,4 C 11,7 C 11,7 C 96 % 1005,5 hPa 0,0 l/m 0 min 0 min 93 W/m 3,2 km/h (1 Bft) 93,62 %
29.04.2020 10:34 12,4 C 11,7 C 11,7 C 96 % 1005,5 hPa 0,0 l/m 0 min 0 min 70 W/m 0,0 km/h (0 Bft) 95,65 %
29.04.2020 10:36 12,4 C 11,7 C 11,7 C 96 % 1005,5 hPa 0,0 l/m 0 min 0 min 56 W/m 0,0 km/h (0 Bft) 93,62 %
29.04.2020 10:38 12,4 C 11,7 C 11,7 C 96 % 1005,5 hPa 0,0 l/m 0 min 0 min 56 W/m 0,0 km/h (0 Bft) 94,55 %
29.04.2020 10:40 12,5 C 11,7 C 11,7 C 96 % 1005,6 hPa 0,0 l/m 0 min 0 min 77 W/m 0,0 km/h (0 Bft) 95,74 %
29.04.2020 10:42 12,5 C 12,2 C 11,7 C 96 % 1005,6 hPa 0,0 l/m 0 min 0 min 103 W/m 0,0 km/h (0 Bft) 95,74 %
29.04.2020 10:44 12,5 C 12,2 C 11,7 C 96 % 1005,5 hPa 0,0 l/m 0 min 0 min 96 W/m 3,2 km/h (1 Bft) 93,48 %
29.04.2020 10:46 12,6 C 12,2 C 11,7 C 96 % 1005,5 hPa 0,0 l/m 0 min 0 min 94 W/m 0,0 km/h (0 Bft) 95,74 %
29.04.2020 10:48 12,6 C 12,2 C 11,7 C 96 % 1005,6 hPa 0,0 l/m 0 min 0 min 96 W/m 0,0 km/h (0 Bft) 93,62 %
29.04.2020 10:50 12,6 C 12,2 C 11,7 C 96 % 1005,6 hPa 0,0 l/m 0 min 0 min 86 W/m 3,2 km/h (1 Bft) 100,00 %
29.04.2020 10:52 12,6 C 12,2 C 11,7 C 96 % 1005,7 hPa 0,0 l/m 0 min 0 min 61 W/m 0,0 km/h (0 Bft) 97,87 %
29.04.2020 10:54 12,6 C 12,2 C 11,7 C 96 % 1005,7 hPa 0,0 l/m 0 min 0 min 50 W/m 12,9 km/h (3 Bft) 95,74 %
29.04.2020 10:56 12,6 C 11,7 C 11,7 C 96 % 1005,6 hPa 0,0 l/m 0 min 0 min 61 W/m 22,5 km/h (4 Bft) 97,83 %
29.04.2020 10:58 12,6 C 11,7 C 11,1 C 96 % 1005,6 hPa 0,0 l/m 0 min 0 min 60 W/m 0,0 km/h (0 Bft) 97,87 %
29.04.2020 11:00 12,6 C 11,7 C 11,1 C 96 % 1005,7 hPa 0,0 l/m 0 min 0 min 70 W/m 12,9 km/h (3 Bft) 95,74 %
29.04.2020 11:02 12,6 C 11,7 C 11,7 C 95 % 1005,8 hPa 0,0 l/m 0 min 0 min 104 W/m 6,4 km/h (2 Bft) 95,74 %
29.04.2020 11:04 12,6 C 12,2 C 11,7 C 95 % 1005,8 hPa 0,0 l/m 0 min 0 min 137 W/m 0,0 km/h (0 Bft) 95,74 %
29.04.2020 11:06 12,6 C 12,2 C 11,7 C 95 % 1005,8 hPa 0,0 l/m 0 min 0 min 120 W/m 0,0 km/h (0 Bft) 97,87 %
29.04.2020 11:08 12,6 C 12,2 C 11,7 C 95 % 1005,9 hPa 0,0 l/m 0 min 0 min 114 W/m 0,0 km/h (0 Bft) 94,74 %
29.04.2020 11:10 12,6 C 12,2 C 11,7 C 96 % 1005,8 hPa 0,0 l/m 0 min 0 min 122 W/m 3,2 km/h (1 Bft) 97,87 %
29.04.2020 11:12 12,6 C 12,2 C 11,7 C 95 % 1005,8 hPa 0,0 l/m 0 min 0 min 138 W/m 19,3 km/h (3 Bft) 95,74 %
29.04.2020 11:14 12,6 C 12,2 C 11,7 C 95 % 1005,7 hPa 0,0 l/m 0 min 0 min 159 W/m 3,2 km/h (1 Bft) 97,87 %
29.04.2020 11:16 12,6 C 12,8 C 11,7 C 95 % 1005,7 hPa 0,0 l/m 0 min 0 min 178 W/m 3,2 km/h (1 Bft) 95,74 %
29.04.2020 11:18 12,7 C 12,8 C 12,2 C 95 % 1005,8 hPa 0,0 l/m 0 min 0 min 180 W/m 6,4 km/h (2 Bft) 97,87 %
29.04.2020 11:20 12,7 C 12,8 C 12,2 C 95 % 1005,8 hPa 0,0 l/m 0 min 0 min 170 W/m 3,2 km/h (1 Bft) 94,44 %
29.04.2020 11:22 12,7 C 12,8 C 12,2 C 95 % 1005,8 hPa 0,0 l/m 0 min 0 min 159 W/m 12,9 km/h (3 Bft) 97,87 %
29.04.2020 11:24 12,7 C 12,8 C 12,2 C 95 % 1005,8 hPa 0,0 l/m 0 min 0 min 173 W/m 9,7 km/h (2 Bft) 97,37 %
29.04.2020 11:26 12,7 C 12,8 C 12,2 C 94 % 1006,0 hPa 0,0 l/m 0 min 0 min 187 W/m 16,1 km/h (3 Bft) 95,74 %
29.04.2020 11:28 12,7 C 13,3 C 12,2 C 94 % 1005,9 hPa 0,0 l/m 0 min 0 min 200 W/m 9,7 km/h (2 Bft) 97,87 %
29.04.2020 11:30 12,7 C 13,3 C 12,2 C 93 % 1005,9 hPa 0,0 l/m 0 min 0 min 221 W/m 12,9 km/h (3 Bft) 95,74 %
29.04.2020 11:32 12,7 C 13,9 C 12,2 C 93 % 1006,0 hPa 0,0 l/m 0 min 0 min 237 W/m 19,3 km/h (3 Bft) 97,92 %
29.04.2020 11:34 12,7 C 13,9 C 12,2 C 92 % 1005,9 hPa 0,0 l/m 0 min 0 min 249 W/m 16,1 km/h (3 Bft) 97,83 %
29.04.2020 11:36 12,8 C 13,9 C 12,8 C 91 % 1006,0 hPa 0,0 l/m 0 min 0 min 272 W/m 25,7 km/h (4 Bft) 97,87 %
29.04.2020 11:38 12,8 C 14,4 C 12,8 C 90 % 1006,0 hPa 0,0 l/m 0 min 0 min 288 W/m 12,9 km/h (3 Bft) 97,87 %
29.04.2020 11:40 12,9 C 14,4 C 12,8 C 90 % 1005,9 hPa 0,0 l/m 0 min 0 min 314 W/m 12,9 km/h (3 Bft) 95,74 %
29.04.2020 11:42 13,0 C 14,4 C 12,8 C 90 % 1006,0 hPa 0,0 l/m 0 min 0 min 292 W/m 22,5 km/h (4 Bft) 97,87 %
29.04.2020 11:44 13,1 C 14,4 C 12,8 C 88 % 1005,8 hPa 0,0 l/m 0 min 0 min 285 W/m 16,1 km/h (3 Bft) 97,83 %
29.04.2020 11:46 13,1 C 13,9 C 12,8 C 88 % 1005,9 hPa 0,0 l/m 0 min 0 min 295 W/m 29,0 km/h (5 Bft) 95,74 %
29.04.2020 11:48 13,2 C 14,4 C 12,8 C 87 % 1005,8 hPa 0,0 l/m 0 min 0 min 326 W/m 16,1 km/h (3 Bft) 97,87 %
29.04.2020 11:50 13,3 C 15,0 C 12,8 C 87 % 1005,8 hPa 0,0 l/m 2 min 0 min 402 W/m 16,1 km/h (3 Bft) 97,87 %
29.04.2020 11:52 13,4 C 15,6 C 13,9 C 87 % 1005,9 hPa 0,0 l/m 2 min 0 min 398 W/m 19,3 km/h (3 Bft) 97,87 %
29.04.2020 11:54 13,5 C 15,6 C 13,9 C 87 % 1005,8 hPa 0,0 l/m 0 min 0 min 351 W/m 6,4 km/h (2 Bft) 97,87 %
29.04.2020 11:56 13,6 C 15,6 C 13,9 C 86 % 1005,8 hPa 0,0 l/m 0 min 0 min 345 W/m 12,9 km/h (3 Bft) 97,83 %
29.04.2020 11:58 13,7 C 15,6 C 13,9 C 86 % 1005,8 hPa 0,0 l/m 0 min 0 min 291 W/m 6,4 km/h (2 Bft) 100,00 %
29.04.2020 12:00 13,8 C 15,6 C 13,9 C 87 % 1005,8 hPa 0,0 l/m 0 min 0 min 265 W/m 6,4 km/h (2 Bft) 97,87 %
29.04.2020 12:02 13,9 C 15,0 C 13,3 C 87 % 1005,9 hPa 0,0 l/m 0 min 0 min 246 W/m 6,4 km/h (2 Bft) 100,00 %
29.04.2020 12:04 13,9 C 15,0 C 13,3 C 86 % 1005,8 hPa 0,0 l/m 0 min 0 min 253 W/m 29,0 km/h (5 Bft) 100,00 %
29.04.2020 12:08 14,0 C 14,4 C 13,3 C 84 % 1005,9 hPa 0,0 l/m 0 min 0 min 254 W/m 25,7 km/h (4 Bft) 100,00 %
29.04.2020 12:10 14,1 C 14,4 C 13,3 C 84 % 1005,8 hPa 0,0 l/m 0 min 0 min 208 W/m 22,5 km/h (4 Bft) 97,87 %
29.04.2020 12:12 14,1 C 14,4 C 12,8 C 83 % 1005,9 hPa 0,0 l/m 0 min 0 min 190 W/m 22,5 km/h (4 Bft) 100,00 %
29.04.2020 12:14 14,1 C 14,4 C 12,8 C 83 % 1005,8 hPa 0,0 l/m 0 min 0 min 173 W/m 6,4 km/h (2 Bft) 100,00 %
29.04.2020 12:16 14,2 C 13,9 C 12,8 C 83 % 1005,8 hPa 0,0 l/m 0 min 0 min 121 W/m 12,9 km/h (3 Bft) 100,00 %
29.04.2020 12:18 14,2 C 13,9 C 12,8 C 83 % 1005,8 hPa 0,0 l/m 0 min 0 min 122 W/m 6,4 km/h (2 Bft) 100,00 %
29.04.2020 12:20 14,2 C 14,4 C 12,8 C 83 % 1005,9 hPa 0,0 l/m 0 min 0 min 164 W/m 3,2 km/h (1 Bft) 100,00 %
29.04.2020 12:22 14,2 C 14,4 C 12,8 C 84 % 1005,8 hPa 0,0 l/m 0 min 0 min 223 W/m 19,3 km/h (3 Bft) 97,87 %
29.04.2020 12:24 14,2 C 14,4 C 13,3 C 83 % 1005,8 hPa 0,0 l/m 0 min 0 min 242 W/m 12,9 km/h (3 Bft) 100,00 %
29.04.2020 12:26 14,2 C 14,4 C 13,3 C 83 % 1005,8 hPa 0,0 l/m 0 min 0 min 241 W/m 22,5 km/h (4 Bft) 100,00 %
29.04.2020 12:28 14,2 C 14,4 C 13,3 C 83 % 1005,8 hPa 0,0 l/m 0 min 0 min 238 W/m 12,9 km/h (3 Bft) 97,87 %
29.04.2020 12:30 14,3 C 14,4 C 13,3 C 82 % 1006,0 hPa 0,0 l/m 0 min 0 min 240 W/m 19,3 km/h (3 Bft) 97,83 %
29.04.2020 12:32 14,3 C 14,4 C 13,3 C 82 % 1005,9 hPa 0,0 l/m 0 min 0 min 247 W/m 12,9 km/h (3 Bft) 98,00 %
29.04.2020 12:34 14,3 C 14,4 C 13,3 C 82 % 1005,8 hPa 0,0 l/m 0 min 0 min 224 W/m 9,7 km/h (2 Bft) 100,00 %
29.04.2020 12:36 14,3 C 14,4 C 13,3 C 82 % 1005,9 hPa 0,0 l/m 0 min 0 min 241 W/m 6,4 km/h (2 Bft) 100,00 %
29.04.2020 12:38 14,3 C 14,4 C 13,3 C 83 % 1005,8 hPa 0,0 l/m 0 min 0 min 182 W/m 3,2 km/h (1 Bft) 98,46 %
29.04.2020 12:40 14,3 C 14,4 C 13,3 C 83 % 1005,8 hPa 0,0 l/m 0 min 0 min 182 W/m 9,7 km/h (2 Bft) 100,00 %
29.04.2020 12:42 14,3 C 14,4 C 13,3 C 82 % 1005,9 hPa 0,0 l/m 0 min 0 min 223 W/m 29,0 km/h (5 Bft) 97,83 %
29.04.2020 12:44 14,3 C 16,1 C 13,9 C 82 % 1005,8 hPa 0,0 l/m 0 min 0 min 248 W/m 12,9 km/h (3 Bft) 100,00 %
29.04.2020 12:46 14,3 C 16,7 C 14,4 C 82 % 1005,8 hPa 0,0 l/m 0 min 0 min 286 W/m 12,9 km/h (3 Bft) 97,87 %
29.04.2020 12:48 14,4 C 16,7 C 14,4 C 82 % 1005,8 hPa 0,0 l/m 2 min 0 min 422 W/m 9,7 km/h (2 Bft) 100,00 %
29.04.2020 12:50 14,5 C 16,7 C 14,4 C 82 % 1005,8 hPa 0,0 l/m 0 min 0 min 341 W/m 16,1 km/h (3 Bft) 100,00 %
29.04.2020 12:52 14,6 C 16,7 C 14,4 C 83 % 1005,7 hPa 0,0 l/m 0 min 0 min 310 W/m 6,4 km/h (2 Bft) 97,83 %
29.04.2020 12:54 14,7 C 16,1 C 14,4 C 82 % 1005,8 hPa 0,0 l/m 0 min 0 min 207 W/m 6,4 km/h (2 Bft) 100,00 %
29.04.2020 12:56 14,7 C 15,0 C 13,9 C 82 % 1005,8 hPa 0,0 l/m 0 min 0 min 141 W/m 22,5 km/h (4 Bft) 97,87 %
29.04.2020 12:58 14,7 C 14,4 C 13,3 C 81 % 1005,8 hPa 0,0 l/m 0 min 0 min 149 W/m 22,5 km/h (4 Bft) 96,00 %
29.04.2020 13:00 14,7 C 15,0 C 13,9 C 81 % 1005,8 hPa 0,0 l/m 0 min 0 min 234 W/m 6,4 km/h (2 Bft) 95,74 %
29.04.2020 13:02 14,7 C 15,0 C 13,9 C 81 % 1005,8 hPa 0,0 l/m 0 min 0 min 185 W/m 29,0 km/h (5 Bft) 93,62 %
29.04.2020 13:04 14,7 C 14,4 C 13,3 C 81 % 1005,9 hPa 0,0 l/m 0 min 0 min 117 W/m 16,1 km/h (3 Bft) 94,74 %
29.04.2020 13:06 14,7 C 14,4 C 13,3 C 81 % 1005,8 hPa 0,0 l/m 0 min 0 min 82 W/m 12,9 km/h (3 Bft) 95,65 %
29.04.2020 13:08 14,7 C 13,9 C 13,3 C 81 % 1005,8 hPa 0,0 l/m 0 min 0 min 83 W/m 22,5 km/h (4 Bft) 94,34 %
29.04.2020 13:10 14,7 C 13,9 C 13,3 C 81 % 1005,8 hPa 0,0 l/m 0 min 0 min 108 W/m 3,2 km/h (1 Bft) 96,00 %
29.04.2020 13:12 14,7 C 13,9 C 13,3 C 81 % 1005,8 hPa 0,0 l/m 0 min 0 min 77 W/m 3,2 km/h (1 Bft) 95,74 %
29.04.2020 13:14 14,7 C 13,9 C 13,3 C 81 % 1005,8 hPa 0,0 l/m 0 min 0 min 71 W/m 3,2 km/h (1 Bft) 97,87 %
29.04.2020 13:16 14,7 C 13,9 C 13,3 C 82 % 1005,8 hPa 0,0 l/m 0 min 0 min 97 W/m 9,7 km/h (2 Bft) 95,65 %
29.04.2020 13:18 14,6 C 14,4 C 13,3 C 82 % 1005,9 hPa 0,0 l/m 0 min 0 min 157 W/m 22,5 km/h (4 Bft) 94,74 %
29.04.2020 13:20 14,6 C 14,4 C 13,9 C 81 % 1005,8 hPa 0,0 l/m 0 min 0 min 149 W/m 6,4 km/h (2 Bft) 95,74 %
29.04.2020 13:22 14,6 C 14,4 C 13,9 C 81 % 1005,8 hPa 0,0 l/m 0 min 0 min 127 W/m 3,2 km/h (1 Bft) 95,74 %
29.04.2020 13:24 14,6 C 14,4 C 13,9 C 81 % 1005,8 hPa 0,0 l/m 0 min 0 min 138 W/m 12,9 km/h (3 Bft) 94,34 %
29.04.2020 13:26 14,6 C 14,4 C 13,9 C 81 % 1005,9 hPa 0,0 l/m 0 min 0 min 160 W/m 6,4 km/h (2 Bft) 95,74 %
29.04.2020 13:28 14,6 C 14,4 C 13,9 C 81 % 1005,9 hPa 0,0 l/m 0 min 0 min 229 W/m 12,9 km/h (3 Bft) 95,65 %
29.04.2020 13:30 14,6 C 15,0 C 14,4 C 81 % 1005,9 hPa 0,0 l/m 0 min 0 min 243 W/m 9,7 km/h (2 Bft) 95,74 %
29.04.2020 13:32 14,6 C 15,6 C 14,4 C 82 % 1005,8 hPa 0,0 l/m 0 min 0 min 300 W/m 6,4 km/h (2 Bft) 90,00 %
29.04.2020 13:34 14,6 C 16,7 C 15,0 C 82 % 1005,8 hPa 0,0 l/m 2 min 0 min 417 W/m 6,4 km/h (2 Bft) 95,74 %
29.04.2020 13:36 14,7 C 16,7 C 16,7 C 83 % 1005,8 hPa 0,0 l/m 2 min 0 min 398 W/m 9,7 km/h (2 Bft) 93,62 %
29.04.2020 13:38 14,7 C 16,7 C 16,1 C 82 % 1005,8 hPa 0,0 l/m 0 min 0 min 291 W/m 3,2 km/h (1 Bft) 93,48 %
29.04.2020 13:40 14,8 C 16,1 C 16,1 C 82 % 1005,8 hPa 0,0 l/m 0 min 0 min 268 W/m 16,1 km/h (3 Bft) 93,62 %
29.04.2020 13:42 14,8 C 16,1 C 15,6 C 81 % 1005,9 hPa 0,0 l/m 0 min 0 min 284 W/m 6,4 km/h (2 Bft) 95,74 %
29.04.2020 13:44 14,8 C 16,7 C 16,7 C 81 % 1006,0 hPa 0,0 l/m 0 min 0 min 313 W/m 12,9 km/h (3 Bft) 95,74 %
29.04.2020 13:46 14,9 C 18,3 C 18,3 C 80 % 1006,0 hPa 0,0 l/m 2 min 0 min 572 W/m 3,2 km/h (1 Bft) 97,87 %
29.04.2020 13:48 15,0 C 18,3 C 18,3 C 80 % 1006,0 hPa 0,0 l/m 2 min 0 min 659 W/m 12,9 km/h (3 Bft) 97,87 %
29.04.2020 13:50 15,1 C 18,9 C 18,9 C 81 % 1006,0 hPa 0,0 l/m 2 min 0 min 594 W/m 25,7 km/h (4 Bft) 94,74 %
29.04.2020 13:52 15,2 C 17,2 C 17,8 C 78 % 1006,1 hPa 0,0 l/m 0 min 0 min 385 W/m 35,4 km/h (5 Bft) 97,83 %
29.04.2020 13:54 15,3 C 16,7 C 16,7 C 77 % 1006,1 hPa 0,0 l/m 0 min 0 min 285 W/m 19,3 km/h (3 Bft) 97,87 %
29.04.2020 13:56 15,3 C 16,7 C 16,7 C 77 % 1006,1 hPa 0,0 l/m 0 min 0 min 307 W/m 12,9 km/h (3 Bft) 97,87 %
29.04.2020 13:58 15,4 C 16,7 C 16,1 C 76 % 1006,0 hPa 0,0 l/m 0 min 0 min 325 W/m 16,1 km/h (3 Bft) 97,87 %
29.04.2020 14:00 15,4 C 16,1 C 16,1 C 76 % 1006,1 hPa 0,0 l/m 0 min 0 min 277 W/m 32,2 km/h (5 Bft) 100,00 %
29.04.2020 14:02 15,5 C 17,2 C 16,7 C 76 % 1006,1 hPa 0,0 l/m 0 min 0 min 267 W/m 3,2 km/h (1 Bft) 100,00 %
29.04.2020 14:04 15,6 C 18,3 C 17,8 C 77 % 1006,0 hPa 0,0 l/m 0 min 0 min 250 W/m 6,4 km/h (2 Bft) 100,00 %
29.04.2020 14:06 15,6 C 18,9 C 18,3 C 77 % 1006,1 hPa 0,0 l/m 0 min 0 min 312 W/m 16,1 km/h (3 Bft) 97,87 %
29.04.2020 14:08 15,7 C 21,1 C 21,7 C 77 % 1006,0 hPa 0,0 l/m 2 min 0 min 818 W/m 3,2 km/h (1 Bft) 98,11 %
29.04.2020 14:10 15,9 C 22,2 C 22,8 C 78 % 1006,0 hPa 0,0 l/m 2 min 0 min 1011 W/m 9,7 km/h (2 Bft) 97,87 %
29.04.2020 14:12 16,1 C 20,0 C 20,6 C 78 % 1006,0 hPa 0,0 l/m 2 min 0 min 650 W/m 12,9 km/h (3 Bft) 95,74 %
29.04.2020 14:14 16,2 C 20,0 C 20,6 C 78 % 1006,1 hPa 0,0 l/m 0 min 0 min 278 W/m 16,1 km/h (3 Bft) 97,83 %
29.04.2020 14:16 16,3 C 18,3 C 18,3 C 76 % 1006,1 hPa 0,0 l/m 0 min 0 min 252 W/m 12,9 km/h (3 Bft) 95,74 %
29.04.2020 14:18 16,3 C 17,8 C 17,2 C 76 % 1006,0 hPa 0,0 l/m 0 min 0 min 217 W/m 3,2 km/h (1 Bft) 100,00 %
29.04.2020 14:20 16,4 C 17,2 C 16,7 C 75 % 1006,1 hPa 0,0 l/m 0 min 0 min 226 W/m 3,2 km/h (1 Bft) 97,87 %
29.04.2020 14:22 16,4 C 17,2 C 16,7 C 75 % 1006,1 hPa 0,0 l/m 0 min 0 min 252 W/m 9,7 km/h (2 Bft) 97,87 %
29.04.2020 14:24 16,4 C 18,3 C 17,8 C 74 % 1006,2 hPa 0,0 l/m 0 min 0 min 274 W/m 6,4 km/h (2 Bft) 97,87 %
29.04.2020 14:26 16,4 C 17,8 C 17,2 C 73 % 1006,1 hPa 0,0 l/m 0 min 0 min 334 W/m 3,2 km/h (1 Bft) 97,83 %
29.04.2020 14:28 16,4 C 17,8 C 17,2 C 72 % 1006,1 hPa 0,0 l/m 2 min 0 min 418 W/m 29,0 km/h (5 Bft) 98,00 %
29.04.2020 14:30 16,5 C 20,0 C 17,8 C 73 % 1006,1 hPa 0,0 l/m 2 min 0 min 443 W/m 3,2 km/h (1 Bft) 97,87 %
29.04.2020 14:32 16,6 C 21,7 C 18,9 C 74 % 1006,1 hPa 0,0 l/m 2 min 0 min 913 W/m 32,2 km/h (5 Bft) 95,74 %
29.04.2020 14:34 16,7 C 20,0 C 18,3 C 72 % 1006,2 hPa 0,0 l/m 2 min 0 min 1050 W/m 25,7 km/h (4 Bft) 97,87 %
29.04.2020 14:36 16,8 C 19,4 C 17,8 C 71 % 1006,2 hPa 0,0 l/m 2 min 0 min 490 W/m 29,0 km/h (5 Bft) 97,37 %
29.04.2020 14:38 16,9 C 21,1 C 18,3 C 72 % 1006,1 hPa 0,0 l/m 2 min 0 min 490 W/m 16,1 km/h (3 Bft) 97,87 %
29.04.2020 14:40 17,0 C 21,1 C 18,3 C 72 % 1006,2 hPa 0,0 l/m 2 min 0 min 490 W/m 19,3 km/h (3 Bft) 98,08 %
29.04.2020 14:42 17,1 C 20,6 C 18,3 C 72 % 1006,2 hPa 0,0 l/m 2 min 0 min 490 W/m 16,1 km/h (3 Bft) 97,87 %
29.04.2020 14:44 17,1 C 18,9 C 17,8 C 71 % 1006,1 hPa 0,0 l/m 2 min 0 min 384 W/m 16,1 km/h (3 Bft) 96,00 %
29.04.2020 14:46 17,1 C 17,8 C 17,2 C 71 % 1006,1 hPa 0,0 l/m 0 min 0 min 360 W/m 16,1 km/h (3 Bft) 100,00 %
29.04.2020 14:48 17,1 C 17,8 C 17,2 C 70 % 1006,0 hPa 0,0 l/m 0 min 0 min 333 W/m 9,7 km/h (2 Bft) 97,87 %
29.04.2020 14:50 17,1 C 18,3 C 17,2 C 71 % 1006,2 hPa 0,0 l/m 0 min 0 min 310 W/m 16,1 km/h (3 Bft) 96,15 %
29.04.2020 14:52 17,1 C 20,0 C 17,8 C 71 % 1006,1 hPa 0,0 l/m 0 min 0 min 311 W/m 16,1 km/h (3 Bft) 95,74 %
29.04.2020 14:54 17,2 C 21,1 C 17,8 C 70 % 1006,1 hPa 0,0 l/m 2 min 0 min 691 W/m 25,7 km/h (4 Bft) 97,87 %
29.04.2020 14:56 17,2 C 18,9 C 17,2 C 70 % 1006,1 hPa 0,0 l/m 2 min 0 min 981 W/m 12,9 km/h (3 Bft) 100,00 %
29.04.2020 14:58 17,2 C 18,9 C 17,2 C 70 % 1006,1 hPa 0,0 l/m 0 min 0 min 286 W/m 12,9 km/h (3 Bft) 100,00 %
29.04.2020 15:00 17,2 C 18,3 C 16,7 C 70 % 1006,1 hPa 0,0 l/m 0 min 0 min 205 W/m 22,5 km/h (4 Bft) 100,00 %
29.04.2020 15:02 17,2 C 18,9 C 17,2 C 69 % 1006,2 hPa 0,0 l/m 0 min 0 min 276 W/m 16,1 km/h (3 Bft) 98,00 %
29.04.2020 15:04 17,2 C 18,9 C 17,2 C 68 % 1006,2 hPa 0,0 l/m 0 min 0 min 285 W/m 22,5 km/h (4 Bft) 97,87 %
29.04.2020 15:06 17,2 C 20,6 C 17,2 C 69 % 1006,1 hPa 0,0 l/m 0 min 0 min 285 W/m 3,2 km/h (1 Bft) 100,00 %
29.04.2020 15:08 17,2 C 19,4 C 17,2 C 69 % 1006,1 hPa 0,0 l/m 0 min 0 min 285 W/m 12,9 km/h (3 Bft) 100,00 %
29.04.2020 15:10 17,3 C 20,0 C 17,8 C 70 % 1006,1 hPa 0,0 l/m 0 min 0 min 285 W/m 19,3 km/h (3 Bft) 100,00 %
29.04.2020 15:12 17,3 C 20,6 C 17,8 C 71 % 1006,1 hPa 0,0 l/m 0 min 0 min 321 W/m 9,7 km/h (2 Bft) 100,00 %
29.04.2020 15:14 17,4 C 20,0 C 17,8 C 70 % 1006,1 hPa 0,0 l/m 2 min 0 min 766 W/m 16,1 km/h (3 Bft) 100,00 %
29.04.2020 15:16 17,4 C 20,6 C 18,3 C 69 % 1006,2 hPa 0,0 l/m 2 min 0 min 891 W/m 6,4 km/h (2 Bft) 100,00 %
29.04.2020 15:18 17,4 C 18,9 C 17,8 C 69 % 1006,1 hPa 0,0 l/m 2 min 0 min 538 W/m 19,3 km/h (3 Bft) 100,00 %
29.04.2020 15:20 17,4 C 20,0 C 17,8 C 68 % 1006,1 hPa 0,0 l/m 2 min 0 min 364 W/m 9,7 km/h (2 Bft) 97,87 %
29.04.2020 15:22 17,5 C 20,6 C 17,8 C 68 % 1006,1 hPa 0,0 l/m 2 min 0 min 739 W/m 19,3 km/h (3 Bft) 98,11 %
29.04.2020 15:24 17,5 C 19,4 C 17,8 C 67 % 1006,1 hPa 0,0 l/m 2 min 0 min 597 W/m 16,1 km/h (3 Bft) 97,83 %
29.04.2020 15:26 17,5 C 18,9 C 17,2 C 65 % 1006,1 hPa 0,0 l/m 0 min 0 min 353 W/m 12,9 km/h (3 Bft) 94,00 %
29.04.2020 15:28 17,5 C 18,3 C 17,2 C 65 % 1006,1 hPa 0,0 l/m 0 min 0 min 325 W/m 22,5 km/h (4 Bft) 97,87 %
29.04.2020 15:30 17,5 C 18,9 C 17,2 C 64 % 1006,0 hPa 0,0 l/m 0 min 0 min 341 W/m 22,5 km/h (4 Bft) 97,87 %
29.04.2020 15:32 17,5 C 21,1 C 17,8 C 66 % 1006,0 hPa 0,0 l/m 2 min 0 min 854 W/m 9,7 km/h (2 Bft) 97,87 %
29.04.2020 15:34 17,6 C 22,2 C 17,8 C 67 % 1006,0 hPa 0,0 l/m 2 min 0 min 906 W/m 12,9 km/h (3 Bft) 97,37 %
29.04.2020 15:36 17,7 C 23,9 C 18,3 C 68 % 1005,9 hPa 0,0 l/m 2 min 0 min 877 W/m 9,7 km/h (2 Bft) 97,83 %
29.04.2020 15:38 17,8 C 22,2 C 17,8 C 64 % 1005,9 hPa 0,0 l/m 2 min 0 min 916 W/m 32,2 km/h (5 Bft) 97,87 %
29.04.2020 15:40 17,8 C 19,4 C 17,8 C 63 % 1005,9 hPa 0,0 l/m 2 min 0 min 939 W/m 22,5 km/h (4 Bft) 97,87 %
29.04.2020 15:42 17,9 C 20,6 C 17,8 C 62 % 1005,9 hPa 0,0 l/m 2 min 0 min 939 W/m 9,7 km/h (2 Bft) 97,87 %
29.04.2020 15:44 17,9 C 20,0 C 17,8 C 64 % 1005,8 hPa 0,0 l/m 2 min 0 min 757 W/m 12,9 km/h (3 Bft) 95,74 %
29.04.2020 15:46 17,9 C 19,4 C 18,3 C 65 % 1005,9 hPa 0,0 l/m 2 min 0 min 505 W/m 12,9 km/h (3 Bft) 95,74 %
29.04.2020 15:48 18,0 C 19,4 C 18,3 C 64 % 1005,8 hPa 0,0 l/m 2 min 0 min 496 W/m 16,1 km/h (3 Bft) 95,65 %
29.04.2020 15:50 18,0 C 18,9 C 17,8 C 64 % 1005,8 hPa 0,0 l/m 2 min 0 min 470 W/m 16,1 km/h (3 Bft) 97,87 %
29.04.2020 15:52 18,0 C 18,3 C 17,8 C 64 % 1005,9 hPa 0,0 l/m 0 min 0 min 300 W/m 12,9 km/h (3 Bft) 98,11 %
29.04.2020 15:54 17,9 C 17,8 C 17,2 C 64 % 1005,8 hPa 0,0 l/m 0 min 0 min 274 W/m 12,9 km/h (3 Bft) 100,00 %
29.04.2020 15:56 17,9 C 17,8 C 17,2 C 64 % 1005,8 hPa 0,0 l/m 0 min 0 min 241 W/m 9,7 km/h (2 Bft) 100,00 %
29.04.2020 15:58 17,8 C 17,2 C 17,2 C 64 % 1005,8 hPa 0,0 l/m 0 min 0 min 205 W/m 6,4 km/h (2 Bft) 100,00 %
29.04.2020 16:00 17,8 C 17,2 C 17,2 C 65 % 1005,8 hPa 0,0 l/m 0 min 0 min 180 W/m 9,7 km/h (2 Bft) 100,00 %
29.04.2020 16:02 17,7 C 16,7 C 16,7 C 65 % 1005,8 hPa 0,0 l/m 0 min 0 min 159 W/m 9,7 km/h (2 Bft) 100,00 %
29.04.2020 16:04 17,7 C 16,7 C 16,7 C 64 % 1005,8 hPa 0,0 l/m 0 min 0 min 141 W/m 9,7 km/h (2 Bft) 100,00 %
29.04.2020 16:06 17,6 C 16,1 C 16,1 C 64 % 1005,8 hPa 0,0 l/m 0 min 0 min 138 W/m 3,2 km/h (1 Bft) 100,00 %
29.04.2020 16:08 17,4 C 16,1 C 16,1 C 65 % 1005,9 hPa 0,0 l/m 0 min 0 min 147 W/m 12,9 km/h (3 Bft) 100,00 %
29.04.2020 16:10 17,3 C 16,1 C 16,1 C 65 % 1005,9 hPa 0,0 l/m 0 min 0 min 170 W/m 16,1 km/h (3 Bft) 97,87 %
29.04.2020 16:12 17,3 C 16,7 C 16,1 C 65 % 1005,8 hPa 0,0 l/m 0 min 0 min 188 W/m 19,3 km/h (3 Bft) 100,00 %
29.04.2020 16:14 17,2 C 16,7 C 16,1 C 65 % 1005,9 hPa 0,0 l/m 0 min 0 min 198 W/m 12,9 km/h (3 Bft) 100,00 %
29.04.2020 16:16 17,1 C 16,7 C 16,1 C 65 % 1005,9 hPa 0,0 l/m 0 min 0 min 219 W/m 12,9 km/h (3 Bft) 97,87 %
29.04.2020 16:18 17,1 C 17,2 C 16,7 C 66 % 1005,9 hPa 0,0 l/m 0 min 0 min 248 W/m 6,4 km/h (2 Bft) 100,00 %
29.04.2020 16:20 17,1 C 17,2 C 16,7 C 66 % 1005,8 hPa 0,0 l/m 0 min 0 min 294 W/m 22,5 km/h (4 Bft) 100,00 %
29.04.2020 16:22 17,1 C 17,8 C 16,7 C 66 % 1005,9 hPa 0,0 l/m 2 min 0 min 356 W/m 22,5 km/h (4 Bft) 100,00 %
29.04.2020 16:24 17,1 C 18,3 C 17,2 C 67 % 1005,8 hPa 0,0 l/m 2 min 0 min 392 W/m 3,2 km/h (1 Bft) 100,00 %
29.04.2020 16:26 17,1 C 18,9 C 17,2 C 67 % 1005,7 hPa 0,0 l/m 2 min 0 min 398 W/m 6,4 km/h (2 Bft) 100,00 %
29.04.2020 16:28 17,1 C 18,9 C 17,8 C 68 % 1005,7 hPa 0,0 l/m 2 min 0 min 348 W/m 12,9 km/h (3 Bft) 97,96 %
29.04.2020 16:30 17,1 C 18,9 C 17,8 C 68 % 1005,7 hPa 0,0 l/m 2 min 0 min 321 W/m 9,7 km/h (2 Bft) 100,00 %
29.04.2020 16:32 17,2 C 19,4 C 17,8 C 68 % 1005,7 hPa 0,0 l/m 2 min 0 min 329 W/m 12,9 km/h (3 Bft) 100,00 %
29.04.2020 16:34 17,2 C 19,4 C 17,8 C 68 % 1005,6 hPa 0,0 l/m 2 min 0 min 400 W/m 9,7 km/h (2 Bft) 100,00 %
29.04.2020 16:36 17,3 C 18,9 C 17,8 C 68 % 1005,7 hPa 0,0 l/m 2 min 0 min 377 W/m 12,9 km/h (3 Bft) 100,00 %
29.04.2020 16:38 17,3 C 18,3 C 17,2 C 67 % 1005,7 hPa 0,0 l/m 2 min 0 min 349 W/m 12,9 km/h (3 Bft) 97,87 %
29.04.2020 16:40 17,3 C 18,3 C 17,2 C 66 % 1005,7 hPa 0,0 l/m 2 min 0 min 328 W/m 6,4 km/h (2 Bft) 100,00 %
29.04.2020 16:42 17,3 C 18,9 C 17,8 C 66 % 1005,7 hPa 0,0 l/m 2 min 0 min 316 W/m 16,1 km/h (3 Bft) 97,87 %
29.04.2020 16:44 17,3 C 19,4 C 17,8 C 66 % 1005,6 hPa 0,0 l/m 2 min 0 min 355 W/m 6,4 km/h (2 Bft) 100,00 %
29.04.2020 16:46 17,4 C 18,9 C 17,2 C 68 % 1005,6 hPa 0,0 l/m 2 min 0 min 332 W/m 12,9 km/h (3 Bft) 97,83 %
29.04.2020 16:48 17,4 C 18,3 C 17,2 C 66 % 1005,6 hPa 0,0 l/m 2 min 0 min 315 W/m 12,9 km/h (3 Bft) 97,87 %
29.04.2020 16:50 17,4 C 17,8 C 17,2 C 65 % 1005,7 hPa 0,0 l/m 2 min 0 min 335 W/m 16,1 km/h (3 Bft) 95,74 %
29.04.2020 16:52 17,4 C 17,8 C 17,2 C 66 % 1005,6 hPa 0,0 l/m 2 min 0 min 311 W/m 9,7 km/h (2 Bft) 95,74 %
29.04.2020 16:54 17,4 C 19,4 C 17,8 C 67 % 1005,7 hPa 0,0 l/m 2 min 0 min 287 W/m 6,4 km/h (2 Bft) 95,74 %
29.04.2020 16:56 17,4 C 21,1 C 18,3 C 67 % 1005,6 hPa 0,0 l/m 2 min 0 min 726 W/m 6,4 km/h (2 Bft) 92,86 %
29.04.2020 16:58 17,5 C 21,1 C 18,9 C 67 % 1005,6 hPa 0,0 l/m 2 min 0 min 713 W/m 9,7 km/h (2 Bft) 95,74 %
29.04.2020 17:00 17,6 C 21,1 C 20,6 C 66 % 1005,5 hPa 0,0 l/m 2 min 0 min 685 W/m 19,3 km/h (3 Bft) 95,92 %
29.04.2020 17:02 17,7 C 21,7 C 21,1 C 66 % 1005,5 hPa 0,0 l/m 2 min 0 min 648 W/m 12,9 km/h (3 Bft) 92,00 %
29.04.2020 17:04 17,8 C 21,7 C 21,1 C 66 % 1005,5 hPa 0,0 l/m 2 min 0 min 663 W/m 6,4 km/h (2 Bft) 95,74 %
29.04.2020 17:06 17,9 C 21,7 C 21,1 C 65 % 1005,5 hPa 0,0 l/m 2 min 0 min 688 W/m 12,9 km/h (3 Bft) 94,29 %
29.04.2020 17:08 17,9 C 19,4 C 19,4 C 64 % 1005,6 hPa 0,0 l/m 2 min 0 min 593 W/m 12,9 km/h (3 Bft) 93,62 %
29.04.2020 17:10 17,9 C 18,3 C 18,3 C 64 % 1005,6 hPa 0,0 l/m 0 min 0 min 187 W/m 9,7 km/h (2 Bft) 93,62 %
29.04.2020 17:12 17,9 C 18,3 C 17,8 C 64 % 1005,5 hPa 0,0 l/m 0 min 0 min 199 W/m 6,4 km/h (2 Bft) 95,65 %
29.04.2020 17:14 17,9 C 18,3 C 17,2 C 64 % 1005,5 hPa 0,0 l/m 0 min 0 min 234 W/m 6,4 km/h (2 Bft) 95,74 %
29.04.2020 17:16 17,9 C 17,8 C 17,2 C 64 % 1005,5 hPa 0,0 l/m 0 min 0 min 259 W/m 16,1 km/h (3 Bft) 97,87 %
29.04.2020 17:18 17,9 C 18,3 C 17,2 C 65 % 1005,5 hPa 0,0 l/m 2 min 0 min 274 W/m 12,9 km/h (3 Bft) 94,55 %
29.04.2020 17:20 17,9 C 18,3 C 17,2 C 65 % 1005,5 hPa 0,0 l/m 2 min 0 min 267 W/m 3,2 km/h (1 Bft) 95,74 %
29.04.2020 17:22 17,8 C 18,3 C 17,2 C 65 % 1005,5 hPa 0,0 l/m 2 min 0 min 259 W/m 9,7 km/h (2 Bft) 95,65 %
29.04.2020 17:24 17,9 C 20,6 C 17,8 C 67 % 1005,5 hPa 0,0 l/m 2 min 0 min 468 W/m 6,4 km/h (2 Bft) 93,62 %
29.04.2020 17:26 17,9 C 21,1 C 18,9 C 67 % 1005,5 hPa 0,0 l/m 2 min 0 min 703 W/m 16,1 km/h (3 Bft) 95,74 %
29.04.2020 17:28 18,0 C 21,7 C 18,9 C 66 % 1005,4 hPa 0,0 l/m 2 min 0 min 701 W/m 12,9 km/h (3 Bft) 95,74 %
29.04.2020 17:30 18,1 C 21,7 C 18,9 C 65 % 1005,4 hPa 0,0 l/m 2 min 0 min 608 W/m 6,4 km/h (2 Bft) 95,74 %
29.04.2020 17:32 18,1 C 21,7 C 18,9 C 65 % 1005,4 hPa 0,0 l/m 2 min 0 min 581 W/m 19,3 km/h (3 Bft) 95,74 %
29.04.2020 17:34 18,2 C 20,6 C 18,3 C 65 % 1005,4 hPa 0,0 l/m 2 min 0 min 557 W/m 19,3 km/h (3 Bft) 95,65 %
29.04.2020 17:36 18,2 C 20,0 C 18,3 C 63 % 1005,4 hPa 0,0 l/m 2 min 0 min 543 W/m 19,3 km/h (3 Bft) 95,74 %
29.04.2020 17:38 18,3 C 20,6 C 18,3 C 63 % 1005,4 hPa 0,0 l/m 2 min 0 min 637 W/m 19,3 km/h (3 Bft) 95,74 %
29.04.2020 17:40 18,3 C 19,4 C 18,3 C 63 % 1005,3 hPa 0,0 l/m 2 min 0 min 553 W/m 12,9 km/h (3 Bft) 95,74 %
29.04.2020 17:42 18,4 C 18,3 C 17,8 C 63 % 1005,4 hPa 0,0 l/m 2 min 0 min 273 W/m 22,5 km/h (4 Bft) 93,62 %
29.04.2020 17:44 18,4 C 17,8 C 17,2 C 63 % 1005,3 hPa 0,0 l/m 0 min 0 min 145 W/m 9,7 km/h (2 Bft) 93,88 %
29.04.2020 17:46 18,3 C 17,8 C 17,2 C 62 % 1005,4 hPa 0,0 l/m 0 min 0 min 165 W/m 29,0 km/h (5 Bft) 93,62 %
29.04.2020 17:48 18,3 C 17,8 C 17,2 C 62 % 1005,4 hPa 0,0 l/m 2 min 0 min 310 W/m 16,1 km/h (3 Bft) 95,74 %
29.04.2020 17:50 18,3 C 17,8 C 16,7 C 63 % 1005,3 hPa 0,0 l/m 2 min 0 min 230 W/m 19,3 km/h (3 Bft) 95,83 %
29.04.2020 17:52 18,2 C 17,2 C 16,7 C 63 % 1005,4 hPa 0,0 l/m 0 min 0 min 155 W/m 29,0 km/h (5 Bft) 93,62 %
29.04.2020 17:54 18,2 C 17,2 C 16,7 C 63 % 1005,2 hPa 0,0 l/m 0 min 0 min 176 W/m 16,1 km/h (3 Bft) 97,14 %
29.04.2020 17:56 18,1 C 17,2 C 16,7 C 64 % 1005,3 hPa 0,0 l/m 0 min 0 min 179 W/m 22,5 km/h (4 Bft) 95,74 %
29.04.2020 17:58 18,1 C 17,2 C 16,7 C 65 % 1005,2 hPa 0,0 l/m 0 min 0 min 212 W/m 22,5 km/h (4 Bft) 97,83 %
29.04.2020 18:00 18,0 C 17,8 C 16,7 C 65 % 1005,2 hPa 0,0 l/m 2 min 0 min 382 W/m 22,5 km/h (4 Bft) 97,87 %
29.04.2020 18:02 17,9 C 18,9 C 16,7 C 66 % 1005,2 hPa 0,0 l/m 2 min 0 min 497 W/m 12,9 km/h (3 Bft) 93,62 %
29.04.2020 18:04 17,9 C 17,8 C 16,7 C 66 % 1005,1 hPa 0,0 l/m 2 min 0 min 237 W/m 16,1 km/h (3 Bft) 97,87 %
29.04.2020 18:08 17,9 C 18,9 C 16,7 C 67 % 1005,1 hPa 0,0 l/m 4 min 0 min 322 W/m 12,9 km/h (3 Bft) 96,81 %
29.04.2020 18:10 17,9 C 18,3 C 16,7 C 66 % 1005,1 hPa 0,0 l/m 2 min 0 min 410 W/m 16,1 km/h (3 Bft) 97,83 %
29.04.2020 18:12 17,8 C 17,2 C 16,1 C 66 % 1005,1 hPa 0,0 l/m 0 min 0 min 97 W/m 19,3 km/h (3 Bft) 97,87 %
29.04.2020 18:14 17,8 C 16,7 C 15,6 C 66 % 1005,1 hPa 0,0 l/m 0 min 0 min 62 W/m 19,3 km/h (3 Bft) 97,87 %
29.04.2020 18:16 17,7 C 16,1 C 15,6 C 66 % 1005,1 hPa 0,0 l/m 0 min 0 min 71 W/m 22,5 km/h (4 Bft) 97,87 %
29.04.2020 18:18 17,7 C 16,1 C 15,6 C 66 % 1005,1 hPa 0,0 l/m 0 min 0 min 87 W/m 19,3 km/h (3 Bft) 97,87 %
29.04.2020 18:20 17,6 C 16,1 C 15,6 C 66 % 1005,0 hPa 0,0 l/m 0 min 0 min 139 W/m 19,3 km/h (3 Bft) 98,15 %
29.04.2020 18:22 17,5 C 16,1 C 15,0 C 66 % 1005,0 hPa 0,0 l/m 0 min 0 min 69 W/m 19,3 km/h (3 Bft) 97,87 %
29.04.2020 18:24 17,4 C 16,1 C 15,0 C 66 % 1005,1 hPa 0,0 l/m 0 min 0 min 71 W/m 12,9 km/h (3 Bft) 100,00 %
29.04.2020 18:26 17,4 C 15,6 C 15,0 C 66 % 1005,1 hPa 0,0 l/m 0 min 0 min 74 W/m 12,9 km/h (3 Bft) 97,87 %
29.04.2020 18:28 17,3 C 15,6 C 15,0 C 66 % 1005,0 hPa 0,0 l/m 0 min 0 min 68 W/m 16,1 km/h (3 Bft) 97,87 %
29.04.2020 18:30 17,2 C 15,6 C 15,0 C 66 % 1005,1 hPa 0,0 l/m 0 min 0 min 65 W/m 16,1 km/h (3 Bft) 97,87 %
29.04.2020 18:32 17,2 C 15,6 C 15,0 C 66 % 1005,0 hPa 0,0 l/m 0 min 0 min 64 W/m 12,9 km/h (3 Bft) 100,00 %
29.04.2020 18:34 17,1 C 15,6 C 15,0 C 67 % 1005,0 hPa 0,0 l/m 0 min 0 min 61 W/m 12,9 km/h (3 Bft) 100,00 %
29.04.2020 18:36 17,1 C 15,6 C 15,0 C 67 % 1005,0 hPa 0,0 l/m 0 min 0 min 61 W/m 12,9 km/h (3 Bft) 100,00 %
29.04.2020 18:38 17,0 C 15,6 C 15,0 C 67 % 1005,0 hPa 0,0 l/m 0 min 0 min 71 W/m 12,9 km/h (3 Bft) 100,00 %
29.04.2020 18:40 16,9 C 16,1 C 15,0 C 67 % 1004,9 hPa 0,0 l/m 0 min 0 min 76 W/m 6,4 km/h (2 Bft) 100,00 %
29.04.2020 18:42 16,9 C 16,1 C 15,6 C 68 % 1004,9 hPa 0,0 l/m 0 min 0 min 77 W/m 16,1 km/h (3 Bft) 100,00 %
29.04.2020 18:44 16,8 C 16,1 C 15,6 C 68 % 1004,9 hPa 0,0 l/m 0 min 0 min 77 W/m 6,4 km/h (2 Bft) 100,00 %
29.04.2020 18:46 16,8 C 16,1 C 15,6 C 68 % 1004,8 hPa 0,0 l/m 0 min 0 min 75 W/m 16,1 km/h (3 Bft) 100,00 %
29.04.2020 18:48 16,8 C 16,1 C 15,6 C 68 % 1004,9 hPa 0,0 l/m 0 min 0 min 68 W/m 6,4 km/h (2 Bft) 100,00 %
29.04.2020 18:50 16,8 C 16,1 C 15,6 C 69 % 1004,8 hPa 0,0 l/m 0 min 0 min 61 W/m 3,2 km/h (1 Bft) 100,00 %
29.04.2020 18:52 16,7 C 16,1 C 15,6 C 69 % 1004,8 hPa 0,0 l/m 0 min 0 min 59 W/m 12,9 km/h (3 Bft) 98,00 %
29.04.2020 18:54 16,7 C 16,1 C 15,6 C 69 % 1004,9 hPa 0,0 l/m 0 min 0 min 57 W/m 12,9 km/h (3 Bft) 100,00 %
29.04.2020 18:56 16,7 C 16,1 C 15,6 C 69 % 1004,8 hPa 0,0 l/m 0 min 0 min 54 W/m 16,1 km/h (3 Bft) 100,00 %
29.04.2020 18:58 16,7 C 16,1 C 15,6 C 69 % 1004,8 hPa 0,0 l/m 0 min 0 min 57 W/m 6,4 km/h (2 Bft) 100,00 %
29.04.2020 19:00 16,7 C 16,1 C 15,6 C 69 % 1004,8 hPa 0,0 l/m 0 min 0 min 66 W/m 6,4 km/h (2 Bft) 100,00 %
29.04.2020 19:02 16,7 C 16,1 C 15,6 C 69 % 1004,7 hPa 0,0 l/m 0 min 0 min 77 W/m 6,4 km/h (2 Bft) 97,87 %
29.04.2020 19:04 16,7 C 16,1 C 15,6 C 69 % 1004,7 hPa 0,0 l/m 0 min 0 min 83 W/m 12,9 km/h (3 Bft) 100,00 %
29.04.2020 19:06 16,6 C 16,1 C 15,6 C 69 % 1004,7 hPa 0,0 l/m 0 min 0 min 83 W/m 3,2 km/h (1 Bft) 98,18 %
29.04.2020 19:08 16,6 C 16,1 C 15,6 C 69 % 1004,7 hPa 0,0 l/m 0 min 0 min 84 W/m 3,2 km/h (1 Bft) 100,00 %
29.04.2020 19:10 16,6 C 16,1 C 15,6 C 69 % 1004,7 hPa 0,0 l/m 0 min 0 min 89 W/m 12,9 km/h (3 Bft) 100,00 %
29.04.2020 19:12 16,6 C 16,1 C 15,6 C 69 % 1004,7 hPa 0,0 l/m 0 min 0 min 90 W/m 6,4 km/h (2 Bft) 100,00 %
29.04.2020 19:14 16,6 C 16,1 C 15,6 C 70 % 1004,6 hPa 0,0 l/m 0 min 0 min 90 W/m 3,2 km/h (1 Bft) 100,00 %
29.04.2020 19:16 16,6 C 16,1 C 15,6 C 69 % 1004,6 hPa 0,0 l/m 0 min 0 min 89 W/m 12,9 km/h (3 Bft) 100,00 %
29.04.2020 19:18 16,6 C 16,1 C 15,6 C 69 % 1004,6 hPa 0,0 l/m 0 min 0 min 84 W/m 16,1 km/h (3 Bft) 100,00 %
29.04.2020 19:20 16,6 C 16,1 C 15,6 C 69 % 1004,5 hPa 0,0 l/m 0 min 0 min 78 W/m 19,3 km/h (3 Bft) 100,00 %
29.04.2020 19:22 16,6 C 16,1 C 15,6 C 69 % 1004,6 hPa 0,0 l/m 0 min 0 min 71 W/m 12,9 km/h (3 Bft) 97,87 %
29.04.2020 19:24 16,6 C 16,1 C 15,6 C 69 % 1004,6 hPa 0,0 l/m 0 min 0 min 62 W/m 3,2 km/h (1 Bft) 100,00 %
29.04.2020 19:26 16,6 C 16,1 C 15,6 C 69 % 1004,5 hPa 0,0 l/m 0 min 0 min 48 W/m 3,2 km/h (1 Bft) 100,00 %
29.04.2020 19:28 16,6 C 15,6 C 15,0 C 69 % 1004,5 hPa 0,0 l/m 0 min 0 min 36 W/m 19,3 km/h (3 Bft) 100,00 %
29.04.2020 19:30 16,6 C 15,6 C 15,0 C 69 % 1004,5 hPa 0,0 l/m 0 min 0 min 27 W/m 12,9 km/h (3 Bft) 95,74 %
29.04.2020 19:32 16,6 C 15,6 C 15,0 C 69 % 1004,5 hPa 0,0 l/m 0 min 0 min 23 W/m 12,9 km/h (3 Bft) 100,00 %
29.04.2020 19:34 16,6 C 15,6 C 15,0 C 69 % 1004,5 hPa 0,0 l/m 0 min 0 min 20 W/m 3,2 km/h (1 Bft) 100,00 %
29.04.2020 19:36 16,6 C 15,6 C 15,0 C 69 % 1004,5 hPa 0,0 l/m 0 min 0 min 18 W/m 6,4 km/h (2 Bft) 100,00 %
29.04.2020 19:38 16,6 C 15,6 C 15,0 C 69 % 1004,4 hPa 0,0 l/m 0 min 0 min 14 W/m 12,9 km/h (3 Bft) 98,11 %
29.04.2020 19:40 16,5 C 15,6 C 14,4 C 69 % 1004,5 hPa 0,0 l/m 0 min 0 min 12 W/m 6,4 km/h (2 Bft) 100,00 %
29.04.2020 19:42 16,5 C 15,6 C 14,4 C 69 % 1004,4 hPa 0,0 l/m 0 min 0 min 11 W/m 3,2 km/h (1 Bft) 97,83 %
29.04.2020 19:44 16,5 C 15,6 C 14,4 C 69 % 1004,4 hPa 0,0 l/m 0 min 0 min 11 W/m 3,2 km/h (1 Bft) 100,00 %
29.04.2020 19:46 16,5 C 15,0 C 14,4 C 69 % 1004,4 hPa 0,0 l/m 0 min 0 min 12 W/m 16,1 km/h (3 Bft) 100,00 %
29.04.2020 19:48 16,4 C 15,0 C 14,4 C 70 % 1004,4 hPa 0,0 l/m 0 min 0 min 12 W/m 12,9 km/h (3 Bft) 97,87 %
29.04.2020 19:50 16,4 C 15,0 C 14,4 C 70 % 1004,4 hPa 0,0 l/m 0 min 0 min 11 W/m 3,2 km/h (1 Bft) 100,00 %
29.04.2020 19:52 16,4 C 15,0 C 14,4 C 70 % 1004,4 hPa 0,0 l/m 0 min 0 min 11 W/m 0,0 km/h (0 Bft) 95,74 %
29.04.2020 19:54 16,4 C 15,0 C 14,4 C 70 % 1004,4 hPa 0,0 l/m 0 min 0 min 10 W/m 12,9 km/h (3 Bft) 95,65 %
29.04.2020 19:56 16,3 C 15,0 C 14,4 C 70 % 1004,3 hPa 0,0 l/m 0 min 0 min 9 W/m 6,4 km/h (2 Bft) 98,00 %
29.04.2020 19:58 16,3 C 15,0 C 14,4 C 70 % 1004,3 hPa 0,0 l/m 0 min 0 min 9 W/m 6,4 km/h (2 Bft) 97,87 %
29.04.2020 20:00 16,3 C 15,0 C 14,4 C 70 % 1004,3 hPa 0,0 l/m 0 min 0 min 11 W/m 3,2 km/h (1 Bft) 96,00 %
29.04.2020 20:02 16,3 C 15,0 C 14,4 C 71 % 1004,3 hPa 0,0 l/m 0 min 0 min 12 W/m 12,9 km/h (3 Bft) 95,74 %
29.04.2020 20:04 16,3 C 15,0 C 14,4 C 70 % 1004,3 hPa 0,0 l/m 0 min 0 min 12 W/m 16,1 km/h (3 Bft) 95,65 %
29.04.2020 20:06 16,3 C 15,0 C 14,4 C 71 % 1004,3 hPa 0,0 l/m 0 min 0 min 11 W/m 6,4 km/h (2 Bft) 95,74 %
29.04.2020 20:08 16,2 C 15,0 C 14,4 C 70 % 1004,3 hPa 0,0 l/m 0 min 0 min 8 W/m 3,2 km/h (1 Bft) 97,56 %
29.04.2020 20:09 16,2 C 15,0 C 14,4 C 71 % 1004,3 hPa 0,0 l/m 0 min 0 min 7 W/m 3,2 km/h (1 Bft) 93,62 %
29.04.2020 20:12 16,2 C 15,0 C 14,4 C 71 % 1004,2 hPa 0,0 l/m 0 min 0 min 6 W/m 3,2 km/h (1 Bft) 93,62 %
29.04.2020 20:14 16,2 C 15,0 C 14,4 C 71 % 1004,2 hPa 0,0 l/m 0 min 0 min 5 W/m 3,2 km/h (1 Bft) 95,74 %
29.04.2020 20:16 16,2 C 15,0 C 14,4 C 71 % 1004,3 hPa 0,0 l/m 0 min 0 min 5 W/m 12,9 km/h (3 Bft) 95,74 %
29.04.2020 20:18 16,1 C 15,0 C 13,9 C 71 % 1004,3 hPa 0,0 l/m 0 min 0 min 5 W/m 6,4 km/h (2 Bft) 95,65 %
29.04.2020 20:20 16,1 C 15,0 C 14,4 C 71 % 1004,3 hPa 0,0 l/m 0 min 0 min 3 W/m 3,2 km/h (1 Bft) 93,62 %
29.04.2020 20:22 16,1 C 15,0 C 14,4 C 71 % 1004,2 hPa 0,0 l/m 0 min 0 min 0 W/m 0,0 km/h (0 Bft) 91,49 %
29.04.2020 20:24 16,1 C 15,0 C 14,4 C 71 % 1004,2 hPa 0,0 l/m 0 min 0 min 0 W/m 12,9 km/h (3 Bft) 91,49 %
29.04.2020 20:26 16,1 C 15,0 C 14,4 C 71 % 1004,2 hPa 0,0 l/m 0 min 0 min 4 W/m 3,2 km/h (1 Bft) 93,62 %
29.04.2020 20:28 16,1 C 15,0 C 13,9 C 72 % 1004,2 hPa 0,0 l/m 0 min 0 min 5 W/m 12,9 km/h (3 Bft) 93,62 %
29.04.2020 20:30 16,0 C 15,0 C 13,9 C 71 % 1004,2 hPa 0,0 l/m 0 min 0 min 1 W/m 12,9 km/h (3 Bft) 95,65 %
29.04.2020 20:32 16,0 C 15,0 C 14,4 C 71 % 1004,2 hPa 0,0 l/m 0 min 0 min 0 W/m 12,9 km/h (3 Bft) 93,62 %
29.04.2020 20:34 15,9 C 15,0 C 14,4 C 71 % 1004,3 hPa 0,0 l/m 0 min 0 min 0 W/m 3,2 km/h (1 Bft) 93,62 %
29.04.2020 20:36 15,9 C 15,0 C 14,4 C 71 % 1004,2 hPa 0,0 l/m 0 min 0 min 0 W/m 6,4 km/h (2 Bft) 93,62 %
29.04.2020 20:38 15,9 C 14,4 C 13,9 C 71 % 1004,2 hPa 0,0 l/m 0 min 0 min 0 W/m 3,2 km/h (1 Bft) 93,62 %
29.04.2020 20:40 15,9 C 14,4 C 13,9 C 71 % 1004,1 hPa 0,0 l/m 0 min 0 min 0 W/m 12,9 km/h (3 Bft) 91,30 %
29.04.2020 20:42 15,9 C 15,0 C 13,9 C 71 % 1004,2 hPa 0,0 l/m 0 min 0 min 0 W/m 3,2 km/h (1 Bft) 89,36 %
29.04.2020 20:44 15,9 C 15,0 C 14,4 C 71 % 1004,1 hPa 0,0 l/m 0 min 0 min 0 W/m 0,0 km/h (0 Bft) 93,62 %
29.04.2020 20:46 15,8 C 14,4 C 13,9 C 71 % 1004,1 hPa 0,0 l/m 0 min 0 min 0 W/m 0,0 km/h (0 Bft) 95,74 %
29.04.2020 20:48 15,8 C 15,0 C 13,9 C 71 % 1004,2 hPa 0,0 l/m 0 min 0 min 0 W/m 6,4 km/h (2 Bft) 95,74 %
29.04.2020 20:50 15,8 C 15,0 C 13,9 C 71 % 1004,1 hPa 0,0 l/m 0 min 0 min 0 W/m 12,9 km/h (3 Bft) 95,74 %
29.04.2020 20:52 15,8 C 14,4 C 13,9 C 71 % 1004,1 hPa 0,0 l/m 0 min 0 min 0 W/m 6,4 km/h (2 Bft) 95,65 %
29.04.2020 20:54 15,8 C 14,4 C 13,9 C 71 % 1004,1 hPa 0,0 l/m 0 min 0 min 0 W/m 12,9 km/h (3 Bft) 95,74 %
29.04.2020 20:56 15,8 C 14,4 C 13,9 C 72 % 1004,1 hPa 0,0 l/m 0 min 0 min 0 W/m 6,4 km/h (2 Bft) 95,74 %
29.04.2020 20:58 15,8 C 14,4 C 13,9 C 72 % 1004,1 hPa 0,0 l/m 0 min 0 min 0 W/m 0,0 km/h (0 Bft) 95,74 %
29.04.2020 21:00 15,8 C 14,4 C 13,9 C 72 % 1004,1 hPa 0,0 l/m 0 min 0 min 0 W/m 0,0 km/h (0 Bft) 95,74 %
29.04.2020 21:02 15,8 C 14,4 C 13,9 C 72 % 1004,1 hPa 0,0 l/m 0 min 0 min 0 W/m 0,0 km/h (0 Bft) 97,87 %
29.04.2020 21:04 15,8 C 14,4 C 13,9 C 72 % 1004,1 hPa 0,0 l/m 0 min 0 min 0 W/m 3,2 km/h (1 Bft) 97,83 %
29.04.2020 21:06 15,7 C 14,4 C 13,9 C 72 % 1004,1 hPa 0,0 l/m 0 min 0 min 0 W/m 3,2 km/h (1 Bft) 97,87 %
29.04.2020 21:08 15,7 C 14,4 C 13,9 C 72 % 1004,1 hPa 0,0 l/m 0 min 0 min 0 W/m 3,2 km/h (1 Bft) 97,87 %
29.04.2020 21:10 15,7 C 14,4 C 13,9 C 72 % 1004,1 hPa 0,0 l/m 0 min 2 min 0 W/m 3,2 km/h (1 Bft) 100,00 %
29.04.2020 21:12 15,7 C 14,4 C 13,9 C 72 % 1004,1 hPa 0,0 l/m 0 min 0 min 0 W/m 19,3 km/h (3 Bft) 100,00 %
29.04.2020 21:14 15,7 C 14,4 C 13,9 C 72 % 1004,2 hPa 0,0 l/m 0 min 0 min 0 W/m 12,9 km/h (3 Bft) 95,74 %
29.04.2020 21:16 15,7 C 14,4 C 13,9 C 72 % 1004,2 hPa 0,0 l/m 0 min 2 min 0 W/m 6,4 km/h (2 Bft) 100,00 %
29.04.2020 21:18 15,6 C 14,4 C 13,9 C 73 % 1004,2 hPa 0,0 l/m 0 min 0 min 0 W/m 19,3 km/h (3 Bft) 100,00 %
29.04.2020 21:20 15,6 C 14,4 C 13,9 C 73 % 1004,1 hPa 0,0 l/m 0 min 0 min 0 W/m 6,4 km/h (2 Bft) 100,00 %
29.04.2020 21:22 15,6 C 14,4 C 13,9 C 73 % 1004,2 hPa 0,0 l/m 0 min 0 min 0 W/m 16,1 km/h (3 Bft) 100,00 %
29.04.2020 21:24 15,6 C 14,4 C 13,9 C 73 % 1004,2 hPa 0,0 l/m 0 min 0 min 0 W/m 12,9 km/h (3 Bft) 100,00 %
29.04.2020 21:26 15,6 C 14,4 C 13,9 C 73 % 1004,2 hPa 0,0 l/m 0 min 0 min 0 W/m 16,1 km/h (3 Bft) 100,00 %
29.04.2020 21:28 15,6 C 14,4 C 13,9 C 73 % 1004,2 hPa 0,0 l/m 0 min 0 min 0 W/m 19,3 km/h (3 Bft) 100,00 %
29.04.2020 21:30 15,6 C 14,4 C 13,9 C 73 % 1004,3 hPa 0,0 l/m 0 min 0 min 0 W/m 12,9 km/h (3 Bft) 100,00 %
29.04.2020 21:32 15,6 C 14,4 C 13,9 C 73 % 1004,3 hPa 0,0 l/m 0 min 0 min 0 W/m 16,1 km/h (3 Bft) 100,00 %
29.04.2020 21:34 15,5 C 14,4 C 13,9 C 73 % 1004,3 hPa 0,0 l/m 0 min 0 min 0 W/m 16,1 km/h (3 Bft) 97,87 %
29.04.2020 21:36 15,5 C 14,4 C 13,9 C 73 % 1004,3 hPa 0,0 l/m 0 min 0 min 0 W/m 16,1 km/h (3 Bft) 97,87 %
29.04.2020 21:38 15,5 C 14,4 C 13,9 C 73 % 1004,3 hPa 0,0 l/m 0 min 0 min 0 W/m 12,9 km/h (3 Bft) 100,00 %
29.04.2020 21:40 15,5 C 14,4 C 13,9 C 73 % 1004,2 hPa 0,0 l/m 0 min 0 min 0 W/m 16,1 km/h (3 Bft) 100,00 %
29.04.2020 21:42 15,4 C 14,4 C 13,9 C 72 % 1004,2 hPa 0,0 l/m 0 min 0 min 0 W/m 12,9 km/h (3 Bft) 100,00 %
29.04.2020 21:44 15,4 C 14,4 C 13,9 C 72 % 1004,2 hPa 0,0 l/m 0 min 0 min 0 W/m 12,9 km/h (3 Bft) 100,00 %
29.04.2020 21:46 15,4 C 14,4 C 13,9 C 72 % 1004,2 hPa 0,0 l/m 0 min 0 min 0 W/m 12,9 km/h (3 Bft) 97,87 %
29.04.2020 21:48 15,4 C 14,4 C 13,9 C 72 % 1004,2 hPa 0,0 l/m 0 min 0 min 0 W/m 6,4 km/h (2 Bft) 100,00 %
29.04.2020 21:50 15,4 C 14,4 C 13,9 C 72 % 1004,1 hPa 0,0 l/m 0 min 0 min 0 W/m 16,1 km/h (3 Bft) 100,00 %
29.04.2020 21:52 15,4 C 13,9 C 13,3 C 72 % 1004,1 hPa 0,0 l/m 0 min 0 min 0 W/m 16,1 km/h (3 Bft) 100,00 %
29.04.2020 21:54 15,4 C 14,4 C 13,3 C 73 % 1004,1 hPa 0,0 l/m 0 min 0 min 0 W/m 12,9 km/h (3 Bft) 100,00 %
29.04.2020 21:56 15,4 C 14,4 C 13,3 C 73 % 1004,1 hPa 0,0 l/m 0 min 0 min 0 W/m 3,2 km/h (1 Bft) 97,87 %
29.04.2020 21:58 15,4 C 14,4 C 13,3 C 73 % 1004,1 hPa 0,0 l/m 0 min 0 min 0 W/m 6,4 km/h (2 Bft) 100,00 %
29.04.2020 22:00 15,4 C 14,4 C 13,9 C 73 % 1004,0 hPa 0,0 l/m 0 min 0 min 0 W/m 12,9 km/h (3 Bft) 97,87 %
29.04.2020 22:02 15,3 C 14,4 C 13,9 C 73 % 1004,0 hPa 0,0 l/m 0 min 0 min 0 W/m 12,9 km/h (3 Bft) 100,00 %
29.04.2020 22:04 15,3 C 14,4 C 13,9 C 73 % 1003,9 hPa 0,0 l/m 0 min 0 min 0 W/m 12,9 km/h (3 Bft) 100,00 %
29.04.2020 22:06 15,3 C 14,4 C 13,9 C 73 % 1004,0 hPa 0,0 l/m 0 min 0 min 0 W/m 6,4 km/h (2 Bft) 100,00 %
29.04.2020 22:08 15,3 C 14,4 C 13,9 C 73 % 1004,0 hPa 0,0 l/m 0 min 0 min 0 W/m 3,2 km/h (1 Bft) 100,00 %
29.04.2020 22:10 15,3 C 13,9 C 13,3 C 73 % 1004,0 hPa 0,0 l/m 0 min 0 min 0 W/m 6,4 km/h (2 Bft) 100,00 %
29.04.2020 22:12 15,3 C 13,9 C 13,3 C 73 % 1003,9 hPa 0,0 l/m 0 min 0 min 0 W/m 3,2 km/h (1 Bft) 100,00 %
29.04.2020 22:14 15,3 C 13,9 C 13,3 C 73 % 1003,9 hPa 0,0 l/m 0 min 2 min 0 W/m 16,1 km/h (3 Bft) 97,83 %
29.04.2020 22:16 15,3 C 13,9 C 13,3 C 73 % 1003,9 hPa 0,0 l/m 0 min 2 min 0 W/m 0,0 km/h (0 Bft) 100,00 %
29.04.2020 22:18 15,3 C 13,9 C 12,8 C 74 % 1003,9 hPa 0,0 l/m 0 min 0 min 0 W/m 3,2 km/h (1 Bft) 100,00 %
29.04.2020 22:20 15,3 C 13,9 C 12,8 C 74 % 1003,9 hPa 0,0 l/m 0 min 2 min 0 W/m 6,4 km/h (2 Bft) 100,00 %
29.04.2020 22:22 15,2 C 13,9 C 12,8 C 74 % 1003,9 hPa 0,0 l/m 0 min 0 min 0 W/m 12,9 km/h (3 Bft) 100,00 %
29.04.2020 22:24 15,2 C 13,3 C 12,8 C 74 % 1003,9 hPa 0,0 l/m 0 min 2 min 0 W/m 12,9 km/h (3 Bft) 100,00 %
29.04.2020 22:26 15,2 C 13,3 C 12,8 C 75 % 1003,9 hPa 0,0 l/m 0 min 0 min 0 W/m 12,9 km/h (3 Bft) 100,00 %
29.04.2020 22:28 15,2 C 13,3 C 12,8 C 75 % 1003,9 hPa 0,0 l/m 0 min 0 min 0 W/m 6,4 km/h (2 Bft) 97,87 %
29.04.2020 22:30 15,2 C 13,3 C 12,8 C 75 % 1003,8 hPa 0,0 l/m 0 min 0 min 0 W/m 12,9 km/h (3 Bft) 97,87 %
29.04.2020 22:32 15,1 C 13,9 C 12,8 C 75 % 1003,8 hPa 0,0 l/m 0 min 0 min 0 W/m 12,9 km/h (3 Bft) 97,87 %
29.04.2020 22:34 15,1 C 13,9 C 12,8 C 75 % 1003,7 hPa 0,0 l/m 0 min 0 min 0 W/m 3,2 km/h (1 Bft) 100,00 %
29.04.2020 22:36 15,1 C 13,9 C 12,8 C 75 % 1003,7 hPa 0,0 l/m 0 min 0 min 0 W/m 3,2 km/h (1 Bft) 100,00 %
29.04.2020 22:38 15,1 C 13,9 C 12,8 C 75 % 1003,7 hPa 0,0 l/m 0 min 0 min 0 W/m 12,9 km/h (3 Bft) 97,83 %
29.04.2020 22:40 15,0 C 13,9 C 12,8 C 75 % 1003,7 hPa 0,0 l/m 0 min 0 min 0 W/m 19,3 km/h (3 Bft) 97,87 %
29.04.2020 22:42 15,0 C 13,9 C 13,3 C 75 % 1003,7 hPa 0,0 l/m 0 min 0 min 0 W/m 16,1 km/h (3 Bft) 97,87 %
29.04.2020 22:44 14,9 C 13,9 C 13,3 C 75 % 1003,7 hPa 0,0 l/m 0 min 0 min 0 W/m 25,7 km/h (4 Bft) 97,87 %
29.04.2020 22:46 14,9 C 13,9 C 13,3 C 75 % 1003,6 hPa 0,0 l/m 0 min 0 min 0 W/m 12,9 km/h (3 Bft) 97,87 %
29.04.2020 22:48 14,8 C 13,9 C 13,3 C 74 % 1003,7 hPa 0,0 l/m 0 min 0 min 0 W/m 32,2 km/h (5 Bft) 97,83 %
29.04.2020 22:50 14,8 C 13,9 C 13,3 C 74 % 1003,7 hPa 0,0 l/m 0 min 0 min 0 W/m 16,1 km/h (3 Bft) 97,87 %
29.04.2020 22:52 14,8 C 13,9 C 13,3 C 74 % 1003,7 hPa 0,0 l/m 0 min 0 min 0 W/m 25,7 km/h (4 Bft) 97,87 %
29.04.2020 22:54 14,8 C 13,9 C 13,3 C 73 % 1003,6 hPa 0,0 l/m 0 min 0 min 0 W/m 22,5 km/h (4 Bft) 97,87 %
29.04.2020 22:56 14,8 C 13,9 C 13,3 C 73 % 1003,7 hPa 0,0 l/m 0 min 0 min 0 W/m 19,3 km/h (3 Bft) 97,87 %
29.04.2020 22:58 14,8 C 13,9 C 13,3 C 73 % 1003,7 hPa 0,0 l/m 0 min 0 min 0 W/m 16,1 km/h (3 Bft) 95,74 %
29.04.2020 23:00 14,8 C 13,9 C 13,3 C 72 % 1003,6 hPa 0,0 l/m 0 min 0 min 0 W/m 16,1 km/h (3 Bft) 97,83 %
29.04.2020 23:02 14,8 C 13,9 C 13,3 C 72 % 1003,6 hPa 0,0 l/m 0 min 0 min 0 W/m 19,3 km/h (3 Bft) 97,87 %
29.04.2020 23:04 14,8 C 13,9 C 13,3 C 72 % 1003,6 hPa 0,0 l/m 0 min 0 min 0 W/m 19,3 km/h (3 Bft) 95,74 %
29.04.2020 23:06 14,8 C 13,9 C 13,3 C 72 % 1003,6 hPa 0,0 l/m 0 min 2 min 0 W/m 22,5 km/h (4 Bft) 97,87 %
29.04.2020 23:08 14,8 C 13,9 C 13,3 C 73 % 1003,6 hPa 0,0 l/m 0 min 0 min 0 W/m 16,1 km/h (3 Bft) 97,87 %
29.04.2020 23:10 14,8 C 13,9 C 12,8 C 73 % 1003,6 hPa 0,0 l/m 0 min 2 min 0 W/m 29,0 km/h (5 Bft) 95,74 %
29.04.2020 23:12 14,8 C 13,3 C 12,8 C 73 % 1003,6 hPa 0,0 l/m 0 min 0 min 0 W/m 19,3 km/h (3 Bft) 95,65 %
29.04.2020 23:14 14,8 C 13,9 C 12,8 C 73 % 1003,6 hPa 0,0 l/m 0 min 0 min 0 W/m 19,3 km/h (3 Bft) 93,62 %
29.04.2020 23:16 14,8 C 13,9 C 12,8 C 73 % 1003,6 hPa 0,0 l/m 0 min 0 min 0 W/m 19,3 km/h (3 Bft) 93,62 %
29.04.2020 23:18 14,8 C 13,9 C 12,8 C 73 % 1003,5 hPa 0,0 l/m 0 min 0 min 0 W/m 19,3 km/h (3 Bft) 95,74 %
29.04.2020 23:20 14,8 C 13,9 C 12,8 C 73 % 1003,5 hPa 0,0 l/m 0 min 2 min 0 W/m 22,5 km/h (4 Bft) 95,74 %
29.04.2020 23:22 14,8 C 13,9 C 12,8 C 73 % 1003,5 hPa 0,0 l/m 0 min 2 min 0 W/m 22,5 km/h (4 Bft) 93,62 %
29.04.2020 23:24 14,8 C 13,9 C 12,8 C 73 % 1003,4 hPa 0,0 l/m 0 min 2 min 0 W/m 25,7 km/h (4 Bft) 95,65 %
29.04.2020 23:26 14,8 C 13,9 C 12,8 C 73 % 1003,5 hPa 0,0 l/m 0 min 0 min 0 W/m 25,7 km/h (4 Bft) 93,62 %
29.04.2020 23:28 14,7 C 13,9 C 12,8 C 74 % 1003,4 hPa 0,0 l/m 0 min 0 min 0 W/m 22,5 km/h (4 Bft) 97,87 %
29.04.2020 23:30 14,7 C 13,9 C 12,8 C 74 % 1003,4 hPa 0,0 l/m 0 min 0 min 0 W/m 22,5 km/h (4 Bft) 97,87 %
29.04.2020 23:32 14,7 C 13,9 C 12,8 C 74 % 1003,3 hPa 0,0 l/m 0 min 0 min 0 W/m 29,0 km/h (5 Bft) 100,00 %
29.04.2020 23:34 14,7 C 13,9 C 13,3 C 74 % 1003,3 hPa 0,0 l/m 0 min 0 min 0 W/m 25,7 km/h (4 Bft) 95,74 %
29.04.2020 23:36 14,7 C 13,3 C 12,8 C 74 % 1003,4 hPa 0,0 l/m 0 min 0 min 0 W/m 12,9 km/h (3 Bft) 97,83 %
29.04.2020 23:38 14,7 C 13,3 C 12,8 C 74 % 1003,3 hPa 0,0 l/m 0 min 0 min 0 W/m 35,4 km/h (5 Bft) 97,87 %
29.04.2020 23:40 14,6 C 13,3 C 12,8 C 74 % 1003,3 hPa 0,0 l/m 0 min 0 min 0 W/m 29,0 km/h (5 Bft) 93,62 %
29.04.2020 23:42 14,6 C 13,3 C 12,8 C 74 % 1003,2 hPa 0,0 l/m 0 min 0 min 0 W/m 25,7 km/h (4 Bft) 91,49 %
29.04.2020 23:44 14,6 C 13,9 C 12,8 C 74 % 1003,2 hPa 0,0 l/m 0 min 0 min 0 W/m 19,3 km/h (3 Bft) 95,74 %
29.04.2020 23:46 14,6 C 13,3 C 12,8 C 74 % 1003,2 hPa 0,0 l/m 0 min 0 min 0 W/m 12,9 km/h (3 Bft) 95,65 %
29.04.2020 23:48 14,6 C 13,3 C 12,8 C 74 % 1003,2 hPa 0,0 l/m 0 min 0 min 0 W/m 12,9 km/h (3 Bft) 95,74 %
29.04.2020 23:50 14,6 C 13,9 C 12,8 C 74 % 1003,2 hPa 0,0 l/m 0 min 0 min 0 W/m 19,3 km/h (3 Bft) 95,74 %
29.04.2020 23:52 14,6 C 13,9 C 12,8 C 74 % 1003,1 hPa 0,0 l/m 0 min 0 min 0 W/m 29,0 km/h (5 Bft) 93,62 %
29.04.2020 23:54 14,6 C 13,9 C 12,8 C 74 % 1003,1 hPa 0,0 l/m 0 min 0 min 0 W/m 19,3 km/h (3 Bft) 95,65 %
29.04.2020 23:56 14,5 C 13,9 C 12,8 C 74 % 1003,1 hPa 0,0 l/m 0 min 0 min 0 W/m 19,3 km/h (3 Bft) 93,62 %
29.04.2020 23:58 14,5 C 13,9 C 12,8 C 74 % 1003,1 hPa 0,0 l/m 0 min 0 min 0 W/m 29,0 km/h (5 Bft) 97,83 %
_ Min-Zeit 05:02 09:14 03:40 15:42 23:52 - - - - 00:00 09:00
Minimum _ 11,2 C 10,0 C 10,0 C 62 % 1003,1 hPa - - - - 0,0 km/h (0 Bft) 53,49 %
_ Max-Zeit 17:42 15:36 14:10 02:10 14:24 09:14 18:08 08:56 14:34 13:52 01:00
Maximum _ 18,4 C 23,9 C 22,8 C 98 % 1006,2 hPa 0,2 l/m 4 min 2 min 1050 W/m 35,4 km/h
S-SW (5 Bft)
100,00 %
Durchschnitt _ 14,0 C 13,8 C 13,1 C 84 % 1005,0 hPa #0,6 l/m #2:46 h #50 min. 208 W/m 9,8 km/h (2 Bft) 97,45 %
© 2020 W. Hausmann